Data for 03/19/2011

Time Sea-Level Adjusted Pressure Absolute Pressure Temperature Relative Humidity Dew Point Precipitation   
(mb) (inHg) (mb) (inHg) (C) (F) (%) (C) (F) (mm) (in)
00:01 1015 29.97 844 24.92 -0.7 30.8 65 -6.4 20.5 -0.299 -0.012
00:02 1015 29.97 844 24.92 -0.7 30.7 65 -6.5 20.2 -0.35 -0.014
00:03 1015 29.97 844 24.92 -0.7 30.7 64 -6.6 20 -0.328 -0.013
00:04 1015 29.97 844 24.92 -0.7 30.7 64 -6.7 20 -0.282 -0.011
00:05 1015 29.97 844 24.92 -0.7 30.8 65 -6.4 20.5 -0.254 -0.01
00:06 1015 29.97 844 24.92 -0.7 30.8 64 -6.6 20.1 -0.248 -0.01
00:07 1015 29.97 844 24.92 -0.6 31 62 -6.9 19.6 -0.18 -0.007
00:08 1015 29.97 844 24.92 -0.4 31.2 62 -6.8 19.7 -0.027 -0.001
00:09 1015 29.97 844 24.92 -0.3 31.5 61 -6.9 19.6 0.109 0.004
00:10 1015 29.97 844 24.92 -0.2 31.6 60 -7 19.4 0.182 0.007
00:11 1015 29.97 844 24.92 -0.1 31.9 60 -7 19.4 0.341 0.013
00:12 1015 29.97 844 24.92 0 32.1 60 -6.9 19.6 0.426 0.017
00:13 1015 29.97 844 24.92 0.1 32.2 61 -6.5 20.2 0.42 0.017
00:14 1015 29.97 844 24.92 -0 32 62 -6.4 20.5 0.318 0.013
00:15 1015 29.97 844 24.92 -0.2 31.7 64 -6.2 20.8 0.154 0.006
00:16 1015 29.97 844 24.92 -0.4 31.4 65 -6.2 20.8 0.018 0.001
00:17 1015 29.97 844 24.92 -0.6 31 64 -6.5 20.2 -0.124 -0.005
00:18 1015 29.97 844 24.92 -0.6 31 63 -6.7 20 -0.146 -0.006
00:19 1015 29.97 844 24.92 -0.5 31.1 62 -7 19.4 -0.078 -0.003
00:20 1015 29.97 844 24.92 -0.4 31.4 63 -6.6 20.2 0.058 0.002
00:21 1015 29.97 844 24.92 -0.4 31.3 66 -6 21.2 -0.016 -0.001
00:22 1015 29.97 844 24.92 -0.5 31 64 -6.5 20.3 -0.101 -0.004
00:23 1015 29.97 844 24.92 -0.5 31.1 64 -6.6 20.2 -0.067 -0.003
00:24 1015 29.97 844 24.92 -0.4 31.2 64 -6.5 20.4 -0.039 -0.002
00:25 1015 29.97 844 24.92 -0.4 31.3 59 -7.3 18.8 0.052 0.002
00:26 1015 29.97 844 24.92 -0.1 31.8 57 -7.6 18.2 0.211 0.008
00:27 1015 29.97 844 24.92 0 32.1 59 -7 19.4 0.352 0.014
00:28 1015 29.97 844 24.92 0 32 58 -7.3 18.9 0.347 0.014
00:29 1015 29.97 844 24.92 0.1 32.2 58 -7.1 19.2 0.477 0.019
00:30 1015 29.97 844 24.92 0.1 32.2 60 -6.8 19.8 0.466 0.018
00:31 1015 29.97 844 24.92 0.1 32.2 58 -7.3 18.9 0.494 0.019
00:32 1015 29.97 844 24.92 0.3 32.6 56 -7.5 18.5 0.704 0.028
00:33 1015 29.97 844 24.92 0.6 33.1 56 -7.3 18.9 0.981 0.039
00:34 1015 29.97 844 24.92 0.7 33.3 54 -7.5 18.5 1.077 0.042
00:35 1015 29.97 844 24.92 0.8 33.4 54 -7.6 18.3 1.083 0.043
00:36 1015 29.97 844 24.92 0.8 33.4 54 -7.4 18.7 1.077 0.042
00:37 1015 29.97 844 24.92 0.7 33.2 53 -7.7 18.1 1.021 0.04
00:38 1015 29.97 844 24.92 0.7 33.3 54 -7.6 18.4 1.049 0.041
00:39 1015 29.97 844 24.92 0.6 33.2 55 -7.4 18.7 0.981 0.039
00:40 1015 29.97 844 24.92 0.5 32.9 58 -6.8 19.7 0.845 0.033
00:41 1015 29.97 844 24.92 0.3 32.6 59 -6.7 19.9 0.607 0.024
00:42 1014 29.94 844 24.92 0.2 32.4 57 -7.3 18.8 0.59 0.023
00:43 1014 29.94 844 24.92 0.3 32.6 57 -7.2 19.1 0.726 0.029
00:44 1014 29.94 844 24.92 0.4 32.8 56 -7.3 18.8 0.794 0.031
00:45 1014 29.94 844 24.92 0.5 32.9 58 -6.9 19.6 0.885 0.035
00:46 1014 29.94 844 24.92 0.5 32.9 57 -7.1 19.2 0.936 0.037
00:47 1014 29.94 844 24.92 0.6 33 59 -6.6 20.1 0.942 0.037
00:48 1014 29.94 844 24.92 0.5 32.9 58 -6.7 19.9 0.885 0.035
00:49 1014 29.94 844 24.92 0.5 33 59 -6.6 20.2 0.891 0.035
00:50 1014 29.94 844 24.92 0.5 33 57 -6.9 19.5 0.942 0.037
00:51 1014 29.94 844 24.92 0.6 33.1 57 -6.9 19.6 1.01 0.04
00:52 1014 29.94 844 24.92 0.6 33.1 58 -6.8 19.8 1.004 0.04
00:53 1014 29.94 844 24.92 0.6 33.1 59 -6.5 20.3 0.953 0.038
00:54 1014 29.94 844 24.92 0.5 32.9 61 -6.2 20.8 0.834 0.033
00:55 1014 29.94 843 24.89 0.4 32.7 60 -6.5 20.3 0.743 0.029
00:56 1014 29.94 843 24.89 0.4 32.7 59 -6.8 19.8 0.755 0.03
00:57 1014 29.94 843 24.89 0.4 32.7 60 -6.5 20.3 0.789 0.031
00:58 1014 29.94 843 24.89 0.4 32.6 58 -6.9 19.5 0.772 0.03
00:59 1014 29.94 843 24.89 0.4 32.8 57 -7 19.4 0.885 0.035
01:00 1014 29.94 843 24.89 0.5 33 59 -6.6 20.2 0.925 0.036
01:01 1014 29.94 843 24.89 0.5 32.9 58 -6.7 19.9 0.868 0.034
01:02 1014 29.94 843 24.89 0.5 32.8 59 -6.6 20.2 0.845 0.033
01:03 1014 29.94 843 24.89 0.4 32.8 57 -7 19.4 0.817 0.032
01:04 1014 29.94 843 24.89 0.4 32.7 58 -6.9 19.7 0.743 0.029
01:05 1014 29.94 843 24.89 0.3 32.6 59 -6.7 19.9 0.715 0.028
01:06 1014 29.94 843 24.89 0.2 32.4 61 -6.4 20.5 0.636 0.025
01:07 1014 29.94 843 24.89 0.2 32.4 58 -7 19.4 0.63 0.025
01:08 1014 29.94 843 24.89 0.4 32.7 57 -7.2 19 0.76 0.03
01:09 1014 29.94 843 24.89 0.6 33.1 54 -7.7 18.2 1.004 0.04
01:10 1014 29.94 843 24.89 1 33.8 48 -8.7 16.3 1.406 0.055
01:11 1014 29.94 843 24.89 1.3 34.4 50 -7.9 17.7 1.695 0.067
01:12 1014 29.94 843 24.89 1.5 34.8 46 -8.8 16.1 1.854 0.073
01:13 1014 29.94 843 24.89 1.8 35.2 49 -7.8 17.9 2.052 0.081
01:14 1014 29.94 843 24.89 1.7 35.1 50 -7.5 18.5 1.984 0.078
01:15 1014 29.94 843 24.89 1.5 34.8 53 -7.1 19.3 1.763 0.069
01:16 1014 29.94 843 24.89 1.3 34.3 53 -7.4 18.7 1.548 0.061
01:17 1014 29.94 843 24.89 1.1 34 54 -7.2 19.1 1.474 0.058
01:18 1014 29.94 843 24.89 1 33.8 54 -7.3 18.8 1.327 0.052
01:19 1014 29.94 843 24.89 0.9 33.6 53 -7.6 18.4 1.276 0.05
01:20 1014 29.94 843 24.89 0.9 33.6 54 -7.5 18.5 1.259 0.05
01:21 1014 29.94 843 24.89 0.8 33.5 54 -7.3 18.8 1.196 0.047
01:22 1014 29.94 843 24.89 0.7 33.3 58 -6.6 20.1 1.049 0.041
01:23 1014 29.94 843 24.89 0.4 32.7 59 -6.8 19.7 0.817 0.032
01:24 1014 29.94 843 24.89 0.2 32.4 58 -7 19.3 0.624 0.025
01:25 1014 29.94 843 24.89 0 32.1 61 -6.6 20.1 0.488 0.019
01:26 1014 29.94 843 24.89 -0.2 31.6 63 -6.5 20.3 0.233 0.009
01:27 1014 29.94 843 24.89 -0.4 31.2 63 -6.7 20 0.024 0.001
01:28 1014 29.94 843 24.89 -0.6 31 63 -6.9 19.7 -0.101 -0.004
01:29 1014 29.94 843 24.89 -0.6 30.9 62 -6.9 19.5 -0.197 -0.008
01:30 1014 29.94 843 24.89 -0.6 30.9 62 -7.1 19.2 -0.186 -0.007
01:31 1014 29.94 843 24.89 -0.5 31.1 61 -7.1 19.2 -0.067 -0.003
01:32 1014 29.94 843 24.89 -0.4 31.2 62 -6.9 19.7 -0.022 -0.001
01:33 1014 29.94 843 24.89 -0.4 31.2 61 -7 19.4 -0.016 -0.001
01:34 1014 29.94 843 24.89 -0.4 31.3 60 -7.2 19.1 0.046 0.002
01:35 1014 29.94 843 24.89 -0.3 31.4 60 -7.2 19 0.052 0.002
01:36 1014 29.94 843 24.89 -0.3 31.5 59 -7.3 18.9 0.069 0.003
01:37 1014 29.94 843 24.89 -0.2 31.6 59 -7.2 19 0.12 0.005
01:38 1014 29.94 843 24.89 -0.2 31.7 58 -7.4 18.6 0.194 0.008
01:39 1014 29.94 843 24.89 -0 31.9 58 -7.4 18.8 0.358 0.014
01:40 1014 29.94 843 24.89 0.1 32.2 60 -6.8 19.7 0.46 0.018
01:41 1013 29.91 843 24.89 -0 32 62 -6.4 20.4 0.347 0.014
01:42 1013 29.91 843 24.89 -0.3 31.5 63 -6.5 20.2 0.092 0.004
01:43 1013 29.91 843 24.89 -0.5 31.1 63 -6.6 20 -0.078 -0.003
01:44 1013 29.91 843 24.89 -0.6 31 63 -6.7 20 -0.163 -0.006
01:45 1013 29.91 843 24.89 -0.6 31 63 -6.9 19.7 -0.197 -0.008
01:46 1013 29.91 843 24.89 -0.5 31 62 -6.8 19.7 -0.146 -0.006
01:47 1013 29.91 843 24.89 -0.5 31 63 -6.7 19.9 -0.141 -0.006
01:48 1013 29.91 843 24.89 -0.6 30.9 63 -6.8 19.7 -0.197 -0.008
01:49 1013 29.91 842 24.86 -0.6 30.8 64 -6.7 20 -0.248 -0.01
01:50 1013 29.91 842 24.86 -0.7 30.8 64 -6.7 19.9 -0.299 -0.012
01:51 1013 29.91 842 24.86 -0.7 30.8 62 -7 19.3 -0.293 -0.012
01:52 1013 29.91 842 24.86 -0.6 30.9 61 -7.3 18.8 -0.158 -0.006
01:53 1013 29.91 842 24.86 -0.4 31.2 59 -7.6 18.4 -0.005 -0
01:54 1013 29.91 842 24.86 -0.3 31.5 59 -7.4 18.6 0.126 0.005
01:55 1013 29.91 842 24.86 -0.2 31.7 57 -7.7 18.1 0.228 0.009
01:56 1013 29.91 842 24.86 -0 31.9 57 -7.6 18.3 0.375 0.015
01:57 1013 29.91 842 24.86 0 32.1 58 -7.3 18.8 0.398 0.016
01:58 1013 29.91 842 24.86 -0 32 60 -6.9 19.6 0.358 0.014
01:59 1013 29.91 842 24.86 -0.2 31.6 61 -6.8 19.7 0.16 0.006
02:00 1013 29.91 842 24.86 -0.5 31.2 62 -6.8 19.8 -0.073 -0.003
02:01 1013 29.91 842 24.86 -0.7 30.8 63 -6.8 19.8 -0.282 -0.011
02:02 1013 29.91 842 24.86 -0.8 30.5 63 -7.1 19.3 -0.446 -0.018
02:03 1013 29.91 842 24.86 -0.9 30.3 63 -7.1 19.3 -0.554 -0.022
02:04 1013 29.91 842 24.86 -1 30.2 64 -7 19.3 -0.594 -0.023
02:05 1013 29.91 842 24.86 -1 30.2 63 -7.2 19 -0.605 -0.024
02:06 1013 29.91 842 24.86 -0.9 30.4 62 -7.3 18.8 -0.509 -0.02
02:07 1013 29.91 842 24.86 -0.8 30.5 61 -7.4 18.6 -0.412 -0.016
02:08 1013 29.91 842 24.86 -0.7 30.8 60 -7.5 18.5 -0.282 -0.011
02:09 1013 29.91 842 24.86 -0.6 31 59 -7.5 18.5 -0.197 -0.008
02:10 1013 29.91 842 24.86 -0.5 31.1 59 -7.5 18.4 -0.061 -0.002
02:11 1013 29.91 842 24.86 -0.4 31.3 59 -7.4 18.6 -0.039 -0.002
02:12 1013 29.91 842 24.86 -0.4 31.3 60 -7.3 18.8 -0.039 -0.002
02:13 1013 29.91 842 24.86 -0.4 31.3 59 -7.5 18.5 -0.033 -0.001
02:14 1013 29.91 842 24.86 -0.4 31.4 59 -7.3 18.8 -0.016 -0.001
02:15 1013 29.91 842 24.86 -0.4 31.3 59 -7.6 18.4 -0.016 -0.001
02:16 1013 29.91 842 24.86 -0.4 31.3 58 -7.8 18 -0.027 -0.001
02:17 1013 29.91 842 24.86 -0.3 31.4 57 -7.8 17.9 0.069 0.003
02:18 1013 29.91 842 24.86 -0.2 31.6 56 -7.9 17.7 0.154 0.006
02:19 1013 29.91 842 24.86 -0.1 31.7 57 -7.8 18 0.228 0.009
02:20 1013 29.91 842 24.86 -0.1 31.9 56 -7.8 18 0.245 0.01
02:21 1013 29.91 842 24.86 -0.1 31.9 56 -7.7 18.2 0.341 0.013
02:22 1013 29.91 842 24.86 0 32 55 -7.9 17.7 0.33 0.013
02:23 1013 29.91 842 24.86 0 32.1 57 -7.5 18.5 0.392 0.015
02:24 1013 29.91 842 24.86 -0 31.9 58 -7.4 18.7 0.324 0.013
02:25 1013 29.91 842 24.86 -0.2 31.7 58 -7.4 18.6 0.233 0.009
02:26 1013 29.91 842 24.86 -0.2 31.7 57 -7.6 18.3 0.165 0.006
02:27 1013 29.91 842 24.86 -0.2 31.6 58 -7.5 18.5 0.16 0.006
02:28 1013 29.91 842 24.86 -0.3 31.5 58 -7.6 18.3 0.063 0.002
02:29 1013 29.91 842 24.86 -0.3 31.4 58 -7.7 18.1 0.024 0.001
02:30 1013 29.91 842 24.86 -0.3 31.4 59 -7.5 18.5 0.052 0.002
02:31 1013 29.91 842 24.86 -0.4 31.2 60 -7.3 18.9 -0.044 -0.002
02:32 1013 29.91 842 24.86 -0.5 31.2 60 -7.3 18.9 -0.124 -0.005
02:33 1013 29.91 842 24.86 -0.5 31.1 60 -7.3 18.8 -0.152 -0.006
02:34 1013 29.91 842 24.86 -0.5 31.2 58 -7.7 18.1 -0.073 -0.003
02:35 1013 29.91 842 24.86 -0.4 31.3 58 -7.7 18.1 -0.016 -0.001
02:36 1013 29.91 842 24.86 -0.3 31.4 57 -7.7 18.1 0.058 0.002
02:37 1013 29.91 842 24.86 -0.3 31.4 58 -7.6 18.3 0.063 0.002
02:38 1013 29.91 842 24.86 -0.4 31.3 61 -7.1 19.2 -0.056 -0.002
02:39 1013 29.91 842 24.86 -0.7 30.8 64 -6.7 19.9 -0.288 -0.011
02:40 1013 29.91 842 24.86 -1 30.2 64 -6.9 19.5 -0.571 -0.022
02:41 1013 29.91 842 24.86 -1.2 29.9 63 -7.3 18.9 -0.735 -0.029
02:42 1013 29.91 842 24.86 -1.2 29.8 64 -7.2 19 -0.786 -0.031
02:43 1013 29.91 842 24.86 -1.2 29.8 63 -7.5 18.6 -0.815 -0.032
02:44 1013 29.91 842 24.86 -1.2 29.9 63 -7.3 18.9 -0.781 -0.031
02:45 1013 29.91 842 24.86 -1.2 29.9 65 -6.9 19.7 -0.832 -0.033
02:46 1012 29.88 842 24.86 -1.4 29.5 66 -6.9 19.5 -0.985 -0.039
02:47 1012 29.88 842 24.86 -1.6 29.2 66 -7.1 19.2 -1.143 -0.045
02:48 1012 29.88 842 24.86 -1.6 29.1 65 -7.4 18.7 -1.177 -0.046
02:49 1012 29.88 842 24.86 -1.5 29.3 64 -7.5 18.6 -1.075 -0.042
02:50 1012 29.88 842 24.86 -1.3 29.6 62 -7.8 18 -0.968 -0.038
02:51 1012 29.88 842 24.86 -1.1 30 62 -7.6 18.3 -0.798 -0.031
02:52 1012 29.88 842 24.86 -1 30.2 60 -7.8 18 -0.718 -0.028
02:53 1012 29.88 842 24.86 -0.9 30.4 60 -7.7 18.1 -0.605 -0.024
02:54 1012 29.88 841 24.83 -0.8 30.5 60 -7.7 18.2 -0.52 -0.02
02:55 1012 29.88 841 24.83 -0.8 30.5 61 -7.4 18.6 -0.463 -0.018
02:56 1012 29.88 842 24.86 -0.9 30.4 62 -7.3 18.9 -0.503 -0.02
02:57 1012 29.88 842 24.86 -0.9 30.4 62 -7.3 18.9 -0.52 -0.02
02:58 1012 29.88 841 24.83 -1 30.3 62 -7.3 18.9 -0.565 -0.022
02:59 1012 29.88 841 24.83 -1 30.3 62 -7.4 18.7 -0.582 -0.023
03:00 1012 29.88 841 24.83 -0.9 30.4 61 -7.4 18.6 -0.503 -0.02
03:01 1012 29.88 841 24.83 -0.8 30.6 61 -7.3 18.8 -0.384 -0.015
03:02 1012 29.88 841 24.83 -0.7 30.8 61 -7.3 18.9 -0.299 -0.012
03:03 1012 29.88 841 24.83 -0.7 30.8 61 -7.3 18.8 -0.276 -0.011
03:04 1012 29.88 841 24.83 -0.6 30.9 61 -7.1 19.1 -0.305 -0.012
03:05 1012 29.88 841 24.83 -0.6 30.8 61 -7.3 18.8 -0.265 -0.01
03:06 1012 29.88 841 24.83 -0.6 30.9 60 -7.4 18.7 -0.214 -0.008
03:07 1012 29.88 841 24.83 -0.6 31 60 -7.4 18.6 -0.174 -0.007
03:08 1012 29.88 841 24.83 -0.5 31.1 59 -7.5 18.4 -0.107 -0.004
03:09 1012 29.88 841 24.83 -0.4 31.2 59 -7.4 18.7 -0.078 -0.003
03:10 1012 29.88 841 24.83 -0.4 31.2 60 -7.2 19 -0.022 -0.001
03:11 1012 29.88 841 24.83 -0.5 31.2 60 -7.3 18.9 -0.073 -0.003
03:12 1012 29.88 841 24.83 -0.5 31 61 -7.2 19 -0.152 -0.006
03:13 1012 29.88 841 24.83 -0.6 31 61 -7.3 18.9 -0.197 -0.008
03:14 1012 29.88 841 24.83 -0.6 30.9 60 -7.4 18.6 -0.208 -0.008
03:15 1012 29.88 841 24.83 -0.6 31 59 -7.6 18.3 -0.214 -0.008
03:16 1012 29.88 841 24.83 -0.5 31.1 58 -7.7 18.2 -0.169 -0.007
03:17 1012 29.88 841 24.83 -0.4 31.2 59 -7.4 18.6 -0.073 -0.003
03:18 1012 29.88 841 24.83 -0.4 31.3 58 -7.7 18.1 -0.01 -0
03:19 1012 29.88 841 24.83 -0.3 31.4 57 -7.8 17.9 0.041 0.002
03:20 1012 29.88 841 24.83 -0.2 31.6 58 -7.4 18.6 0.069 0.003
03:21 1012 29.88 841 24.83 -0.3 31.5 57 -7.7 18.1 0.109 0.004
03:22 1012 29.88 841 24.83 -0.2 31.6 57 -7.8 17.9 0.12 0.005
03:23 1011 29.85 841 24.83 -0.2 31.6 58 -7.5 18.4 0.171 0.007
03:24 1011 29.85 841 24.83 -0.2 31.6 58 -7.6 18.4 0.12 0.005
03:25 1011 29.85 841 24.83 -0.2 31.6 56 -8 17.6 0.182 0.007
03:26 1011 29.85 841 24.83 -0.1 31.8 56 -7.9 17.7 0.25 0.01
03:27 1011 29.85 841 24.83 0 32.1 52 -8.6 16.5 0.449 0.018
03:28 1011 29.85 841 24.83 0.2 32.4 52 -8.6 16.5 0.675 0.027
03:29 1011 29.85 841 24.83 0.4 32.7 51 -8.5 16.6 0.874 0.034
03:30 1011 29.85 840 24.81 0.6 33.1 50 -8.8 16.2 0.981 0.039
03:31 1011 29.85 840 24.81 0.7 33.2 50 -8.5 16.7 1.072 0.042
03:32 1011 29.85 840 24.81 0.8 33.4 49 -8.9 16.1 1.236 0.049
03:33 1011 29.85 840 24.81 0.9 33.7 48 -8.8 16.2 1.304 0.051
03:34 1011 29.85 840 24.81 0.9 33.7 49 -8.7 16.3 1.31 0.052
03:35 1011 29.85 840 24.81 0.9 33.7 49 -8.7 16.4 1.344 0.053
03:36 1011 29.85 840 24.81 1 33.9 48 -8.8 16.1 1.508 0.059
03:37 1011 29.85 840 24.81 1.2 34.1 47 -8.9 16 1.548 0.061
03:38 1011 29.85 840 24.81 1.2 34.1 46 -9.3 15.3 1.604 0.063
03:39 1011 29.85 840 24.81 1.3 34.3 46 -9.1 15.6 1.723 0.068
03:40 1011 29.85 840 24.81 1.3 34.4 45 -9.3 15.3 1.723 0.068
03:41 1011 29.85 840 24.81 1.4 34.5 47 -8.8 16.1 1.774 0.07
03:42 1011 29.85 840 24.81 1.4 34.5 45 -9.2 15.5 1.808 0.071
03:43 1011 29.85 840 24.81 1.4 34.5 46 -8.9 15.9 1.797 0.071
03:44 1011 29.85 840 24.81 1.4 34.6 46 -9.1 15.7 1.814 0.071
03:45 1011 29.85 840 24.81 1.5 34.6 47 -8.7 16.3 1.854 0.073
03:46 1011 29.85 840 24.81 1.4 34.6 46 -8.9 15.9 1.825 0.072
03:47 1011 29.85 840 24.81 1.4 34.6 46 -8.9 16 1.842 0.073
03:48 1011 29.85 840 24.81 1.5 34.7 45 -9.2 15.5 1.842 0.073
03:49 1011 29.85 840 24.81 1.5 34.7 45 -9.2 15.5 1.893 0.075
03:50 1011 29.85 840 24.81 1.5 34.7 45 -9.1 15.6 1.944 0.077
03:51 1011 29.85 840 24.81 1.5 34.7 46 -8.9 15.9 1.899 0.075
03:52 1011 29.85 840 24.81 1.5 34.6 46 -9 15.8 1.882 0.074
03:53 1011 29.85 840 24.81 1.4 34.6 48 -8.4 16.8 1.82 0.072
03:54 1011 29.85 840 24.81 1.2 34.2 52 -7.6 18.3 1.621 0.064
03:55 1011 29.85 840 24.81 0.9 33.7 51 -8.1 17.4 1.349 0.053
03:56 1011 29.85 840 24.81 0.7 33.3 54 -7.6 18.3 1.145 0.045
03:57 1011 29.85 840 24.81 0.6 33 52 -8.1 17.5 0.993 0.039
03:58 1011 29.85 840 24.81 0.5 33 53 -7.9 17.8 0.959 0.038
03:59 1011 29.85 840 24.81 0.5 33 52 -8.2 17.3 0.947 0.037
04:00 1011 29.85 840 24.81 0.6 33 52 -8.2 17.2 1.004 0.04
04:01 1011 29.85 840 24.81 0.6 33.2 52 -8.1 17.5 1.026 0.04
04:02 1011 29.85 840 24.81 0.7 33.2 53 -7.8 17.9 1.134 0.045
04:03 1011 29.85 840 24.81 0.7 33.2 55 -7.4 18.8 1.043 0.041
04:04 1011 29.85 840 24.81 0.6 33.1 53 -7.9 17.8 1.026 0.04
04:05 1011 29.85 840 24.81 0.6 33.1 54 -7.7 18.2 1.004 0.04
04:06 1011 29.85 840 24.81 0.6 33.1 53 -7.8 18 1.015 0.04
04:07 1011 29.85 840 24.81 0.6 33.1 53 -7.8 17.9 0.97 0.038
04:08 1011 29.85 840 24.81 0.6 33.2 52 -8.2 17.3 1.043 0.041
04:09 1011 29.85 840 24.81 0.7 33.3 51 -8.2 17.2 1.134 0.045
04:10 1011 29.85 840 24.81 0.8 33.5 50 -8.3 17 1.236 0.049
04:11 1011 29.85 840 24.81 0.9 33.6 51 -8.1 17.4 1.304 0.051
04:12 1011 29.85 840 24.81 0.9 33.7 51 -8.1 17.4 1.31 0.052
04:13 1011 29.85 840 24.81 0.9 33.7 49 -8.6 16.5 1.315 0.052
04:14 1011 29.85 840 24.81 1 33.8 48 -8.7 16.3 1.378 0.054
04:15 1011 29.85 840 24.81 1.1 33.9 48 -8.7 16.4 1.468 0.058
04:16 1011 29.85 840 24.81 1.1 34 47 -9 15.8 1.565 0.062
04:17 1011 29.85 840 24.81 1.2 34.2 48 -8.7 16.4 1.616 0.064
04:18 1011 29.85 840 24.81 1.2 34.2 48 -8.7 16.3 1.61 0.063
04:19 1011 29.85 840 24.81 1.2 34.2 46 -9.3 15.3 1.576 0.062
04:20 1011 29.85 840 24.81 1.3 34.3 45 -9.3 15.3 1.672 0.066
04:21 1011 29.85 840 24.81 1.3 34.3 47 -8.8 16.1 1.706 0.067
04:22 1011 29.85 840 24.81 1.3 34.4 48 -8.5 16.6 1.695 0.067
04:23 1011 29.85 840 24.81 1.3 34.3 47 -8.8 16.2 1.655 0.065
04:24 1011 29.85 840 24.81 1.2 34.2 48 -8.7 16.4 1.633 0.064
04:25 1011 29.85 840 24.81 1.2 34.2 48 -8.7 16.4 1.633 0.064
04:26 1011 29.85 840 24.81 1.2 34.2 48 -8.6 16.5 1.661 0.065
04:27 1011 29.85 840 24.81 1.2 34.2 47 -8.8 16.2 1.627 0.064
04:28 1011 29.85 840 24.81 1.2 34.2 45 -9.4 15.1 1.684 0.066
04:29 1011 29.85 840 24.81 1.3 34.4 46 -9 15.7 1.757 0.069
04:30 1011 29.85 840 24.81 1.4 34.6 47 -8.8 16.2 1.791 0.071
04:31 1011 29.85 840 24.81 1.4 34.5 48 -8.5 16.7 1.746 0.069
04:32 1011 29.85 840 24.81 1.3 34.4 46 -9.1 15.6 1.78 0.07
04:33 1011 29.85 840 24.81 1.4 34.5 46 -9 15.9 1.82 0.072
04:34 1011 29.85 840 24.81 1.4 34.6 45 -9.2 15.5 1.825 0.072
04:35 1011 29.85 840 24.81 1.4 34.6 48 -8.5 16.6 1.842 0.073
04:36 1011 29.85 840 24.81 1.4 34.5 47 -8.7 16.3 1.746 0.069
04:37 1011 29.85 840 24.81 1.4 34.4 46 -9 15.7 1.78 0.07
04:38 1011 29.85 840 24.81 1.4 34.5 47 -8.8 16.2 1.797 0.071
04:39 1011 29.85 840 24.81 1.4 34.6 45 -9.1 15.6 1.825 0.072
04:40 1011 29.85 840 24.81 1.4 34.6 47 -8.7 16.3 1.825 0.072
04:41 1011 29.85 840 24.81 1.4 34.5 49 -8.2 17.2 1.769 0.07
04:42 1011 29.85 840 24.81 1.2 34.2 51 -7.8 18 1.65 0.065
04:43 1011 29.85 840 24.81 1.1 34 50 -8.3 17.1 1.508 0.059
04:44 1011 29.85 840 24.81 1.1 33.9 50 -8.2 17.2 1.497 0.059
04:45 1011 29.85 840 24.81 1 33.9 50 -8.3 17.1 1.451 0.057
04:46 1011 29.85 840 24.81 1 33.8 49 -8.4 16.8 1.411 0.056
04:47 1011 29.85 840 24.81 1 33.9 49 -8.5 16.7 1.439 0.057
04:48 1011 29.85 840 24.81 1 33.8 48 -8.9 16 1.405 0.055
04:49 1011 29.85 840 24.81 1 33.8 49 -8.4 16.8 1.466 0.058
04:50 1011 29.85 840 24.81 1.1 33.9 46 -9.3 15.3 1.449 0.057
04:51 1011 29.85 840 24.81 1.2 34.1 46 -9.3 15.3 1.573 0.062
04:52 1011 29.85 840 24.81 1.3 34.3 47 -8.8 16.2 1.659 0.065
04:53 1011 29.85 840 24.81 1.2 34.2 47 -9 15.8 1.597 0.063
04:54 1011 29.85 840 24.81 1.3 34.3 46 -9.1 15.6 1.67 0.066
04:55 1011 29.85 840 24.81 1.4 34.5 48 -8.4 16.9 1.771 0.07
04:56 1011 29.85 840 24.81 1.4 34.5 48 -8.4 16.8 1.794 0.071
04:57 1010 29.83 840 24.81 1.4 34.5 48 -8.5 16.7 1.788 0.07
04:58 1010 29.83 840 24.81 1.4 34.5 46 -8.9 16 1.787 0.07
04:59 1011 29.85 840 24.81 1.3 34.4 48 -8.6 16.5 1.68 0.066
05:00 1011 29.85 840 24.81 1.3 34.3 49 -8.3 17 1.663 0.065
05:01 1010 29.83 840 24.81 1.2 34.1 49 -8.5 16.7 1.624 0.064
05:02 1010 29.83 840 24.81 1.2 34.1 46 -9.1 15.6 1.579 0.062
05:03 1010 29.83 840 24.81 1.3 34.3 46 -9.1 15.6 1.579 0.062
05:04 1010 29.83 840 24.81 1.3 34.4 47 -8.8 16.2 1.67 0.066
05:05 1010 29.83 840 24.81 1.3 34.4 50 -8.1 17.4 1.693 0.067
05:06 1010 29.83 840 24.81 1.2 34.2 48 -8.6 16.5 1.59 0.063
05:07 1010 29.83 840 24.81 1.2 34.2 48 -8.6 16.5 1.618 0.064
05:08 1010 29.83 840 24.81 1.3 34.3 48 -8.6 16.5 1.675 0.066
05:09 1010 29.83 840 24.81 1.3 34.4 47 -8.9 16 1.759 0.069
05:10 1010 29.83 840 24.81 1.4 34.6 47 -8.7 16.4 1.849 0.073
05:11 1010 29.83 840 24.81 1.5 34.7 44 -9.5 14.9 1.946 0.077
05:12 1010 29.83 840 24.81 1.6 34.9 46 -8.8 16.1 2.042 0.08
05:13 1010 29.83 840 24.81 1.6 34.9 46 -8.9 16.1 2.013 0.079
05:14 1010 29.83 840 24.81 1.6 35 46 -8.8 16.1 2.092 0.082
05:15 1010 29.83 840 24.81 1.7 35 45 -8.9 16 2.081 0.082
05:16 1010 29.83 840 24.81 1.7 35.1 47 -8.5 16.7 2.149 0.085
05:17 1010 29.83 840 24.81 1.8 35.2 45 -8.8 16.1 2.183 0.086
05:18 1010 29.83 840 24.81 1.8 35.2 45 -9 15.8 2.205 0.087
05:19 1010 29.83 840 24.81 1.8 35.2 44 -9.2 15.4 2.239 0.088
05:20 1010 29.83 840 24.81 1.8 35.3 46 -8.5 16.7 2.245 0.088
05:21 1010 29.83 840 24.81 1.8 35.2 45 -8.9 16 2.244 0.088
05:22 1010 29.83 840 24.81 1.8 35.3 44 -9.2 15.4 2.239 0.088
05:23 1010 29.83 840 24.81 1.8 35.2 45 -8.9 16.1 2.205 0.087
05:24 1010 29.83 840 24.81 1.8 35.3 46 -8.6 16.5 2.233 0.088
05:25 1010 29.83 840 24.81 1.8 35.3 41 -10.2 13.7 2.255 0.089
05:26 1010 29.83 840 24.81 2 35.5 43 -9.5 15 2.437 0.096
05:27 1010 29.83 840 24.81 2.1 35.7 44 -8.9 16.1 2.487 0.098
05:28 1010 29.83 840 24.81 2 35.6 42 -9.5 14.9 2.425 0.095
05:29 1010 29.83 840 24.81 2.1 35.8 42 -9.5 15 2.504 0.099
05:30 1010 29.83 840 24.81 2.1 35.9 42 -9.6 14.7 2.572 0.101
05:31 1010 29.83 840 24.81 2.2 35.9 42 -9.4 15.1 2.6 0.102
05:32 1010 29.83 840 24.81 2.2 35.9 44 -8.9 16 2.606 0.103
05:33 1010 29.83 840 24.81 2.1 35.8 42 -9.4 15.1 2.532 0.1
05:34 1011 29.85 840 24.81 2.1 35.9 42 -9.4 15.1 2.583 0.102
05:35 1011 29.85 840 24.81 2.2 35.9 41 -9.9 14.1 2.566 0.101
05:36 1011 29.85 840 24.81 2.2 36 43 -9.2 15.4 2.634 0.104
05:37 1011 29.85 840 24.81 2.2 36 42 -9.4 15.1 2.617 0.103
05:38 1011 29.85 840 24.81 2.1 35.9 42 -9.4 15.1 2.544 0.1
05:39 1011 29.85 840 24.81 2.1 35.8 44 -9.1 15.7 2.504 0.099
05:40 1011 29.85 840 24.81 2.1 35.8 43 -9.4 15.1 2.521 0.099
05:41 1011 29.85 840 24.81 2.1 35.8 42 -9.5 14.9 2.532 0.1
05:42 1011 29.85 840 24.81 2.1 35.9 43 -9.3 15.2 2.531 0.1
05:43 1011 29.85 840 24.81 2.1 35.8 41 -9.8 14.4 2.491 0.098
05:44 1011 29.85 840 24.81 2.1 35.7 43 -9.2 15.4 2.474 0.097
05:45 1010 29.83 840 24.81 2 35.6 45 -8.9 16.1 2.428 0.096
05:46 1011 29.85 840 24.81 2 35.6 44 -8.9 15.9 2.348 0.092
05:47 1011 29.85 840 24.81 2 35.5 44 -9 15.8 2.348 0.092
05:48 1010 29.83 840 24.81 1.9 35.5 43 -9.4 15 2.325 0.092
05:49 1010 29.83 840 24.81 1.9 35.5 46 -8.4 16.8 2.336 0.092
05:50 1010 29.83 840 24.81 1.9 35.4 46 -8.6 16.6 2.268 0.089
05:51 1011 29.85 840 24.81 1.8 35.2 46 -8.6 16.4 2.171 0.085
05:52 1011 29.85 840 24.81 1.8 35.2 46 -8.6 16.5 2.199 0.087
05:53 1011 29.85 840 24.81 1.8 35.3 48 -8.1 17.4 2.216 0.087
05:54 1011 29.85 840 24.81 1.8 35.2 45 -8.8 16.1 2.182 0.086
05:55 1011 29.85 840 24.81 1.8 35.2 48 -8.2 17.3 2.176 0.086
05:56 1011 29.85 840 24.81 1.7 35 50 -7.6 18.4 2.108 0.083
05:57 1011 29.85 840 24.81 1.6 34.8 50 -7.7 18.1 1.966 0.077
05:58 1011 29.85 840 24.81 1.5 34.7 46 -8.8 16.1 1.938 0.076
05:59 1010 29.83 840 24.81 1.6 34.9 49 -8 17.6 2.028 0.08
06:00 1011 29.85 840 24.81 1.6 34.9 48 -8.2 17.3 1.983 0.078
06:01 1011 29.85 840 24.81 1.6 34.9 45 -9.2 15.4 2.016 0.079
06:02 1010 29.83 840 24.81 1.6 35 46 -8.8 16.2 2.09 0.082
06:03 1010 29.83 840 24.81 1.7 35 46 -8.7 16.4 2.095 0.082
06:04 1010 29.83 840 24.81 1.7 35 50 -7.7 18.2 2.061 0.081
06:05 1010 29.83 840 24.81 1.5 34.8 50 -7.8 18 1.971 0.078
06:06 1010 29.83 840 24.81 1.5 34.6 49 -8.2 17.3 1.863 0.073
06:07 1010 29.83 840 24.81 1.4 34.5 54 -6.9 19.5 1.823 0.072
06:08 1010 29.83 840 24.81 1.3 34.3 50 -8.1 17.4 1.716 0.068
06:09 1010 29.83 840 24.81 1.3 34.4 49 -8.2 17.3 1.772 0.07
06:10 1010 29.83 840 24.81 1.3 34.4 47 -8.8 16.1 1.795 0.071
06:11 1010 29.83 840 24.81 1.4 34.5 47 -8.8 16.2 1.812 0.071
06:12 1010 29.83 840 24.81 1.5 34.7 47 -8.7 16.4 1.908 0.075
06:13 1010 29.83 840 24.81 1.6 34.8 49 -8.1 17.5 1.993 0.078
06:14 1010 29.83 839 24.78 1.5 34.8 52 -7.4 18.8 1.959 0.077
06:15 1010 29.83 839 24.78 1.4 34.6 52 -7.4 18.6 1.823 0.072
06:16 1010 29.83 839 24.78 1.4 34.5 50 -7.8 17.9 1.772 0.07
06:17 1010 29.83 839 24.78 1.5 34.6 49 -8.2 17.2 1.885 0.074
06:18 1010 29.83 839 24.78 1.5 34.7 48 -8.4 16.9 1.936 0.076
06:19 1010 29.83 839 24.78 1.6 34.8 47 -8.7 16.4 2.032 0.08
06:20 1010 29.83 839 24.78 1.7 35 48 -8.2 17.2 2.117 0.083
06:21 1010 29.83 839 24.78 1.7 35.1 45 -9 15.9 2.168 0.085
06:22 1010 29.83 839 24.78 1.8 35.2 48 -8.2 17.2 2.213 0.087
06:23 1010 29.83 839 24.78 1.7 35.1 47 -8.4 16.9 2.162 0.085
06:24 1010 29.83 839 24.78 1.7 35.1 49 -7.8 18 2.128 0.084
06:25 1010 29.83 839 24.78 1.7 35 48 -8 17.5 2.1 0.083
06:26 1010 29.83 839 24.78 1.7 35 50 -7.6 18.4 2.038 0.08
06:27 1010 29.83 839 24.78 1.6 34.9 47 -8.4 16.9 2.026 0.08
06:28 1010 29.83 839 24.78 1.6 35 49 -8 17.5 2.089 0.082
06:29 1010 29.83 839 24.78 1.7 35 49 -8 17.6 2.066 0.081
06:30 1010 29.83 839 24.78 1.7 35 48 -8.2 17.3 2.1 0.083
06:31 1010 29.83 839 24.78 1.7 35.1 48 -8.3 17.1 2.123 0.084
06:32 1010 29.83 839 24.78 1.8 35.2 44 -9.2 15.5 2.259 0.089
06:33 1010 29.83 839 24.78 1.9 35.5 47 -8.2 17.2 2.366 0.093
06:34 1010 29.83 839 24.78 2 35.5 48 -7.9 17.7 2.378 0.094
06:35 1010 29.83 839 24.78 1.9 35.5 48 -8 17.6 2.31 0.091
06:36 1010 29.83 839 24.78 1.9 35.4 47 -8.2 17.3 2.332 0.092
06:37 1010 29.83 839 24.78 1.9 35.4 49 -7.7 18.1 2.338 0.092
06:38 1010 29.83 839 24.78 1.9 35.4 47 -8.4 17 2.377 0.094
06:39 1010 29.83 839 24.78 1.9 35.5 47 -8.3 17.1 2.417 0.095
06:40 1010 29.83 839 24.78 2 35.5 48 -7.9 17.7 2.377 0.094
06:41 1010 29.83 839 24.78 1.9 35.5 47 -8.3 17.1 2.36 0.093
06:42 1010 29.83 839 24.78 2 35.5 47 -8.2 17.2 2.417 0.095
06:43 1010 29.83 839 24.78 2 35.7 46 -8.3 17 2.491 0.098
06:44 1010 29.83 839 24.78 2.1 35.7 46 -8.4 16.9 2.519 0.099
06:45 1010 29.83 839 24.78 2.1 35.9 47 -8.1 17.4 2.553 0.101
06:46 1010 29.83 839 24.78 2.1 35.9 48 -7.8 18 2.542 0.1
06:47 1010 29.83 839 24.78 2.2 35.9 46 -8.4 16.9 2.604 0.103
06:48 1010 29.83 839 24.78 2.3 36.1 48 -7.7 18.1 2.7 0.106
06:49 1010 29.83 839 24.78 2.2 36 48 -7.7 18.1 2.621 0.103
06:50 1010 29.83 839 24.78 2.2 36 46 -8.1 17.4 2.627 0.103
06:51 1010 29.83 839 24.78 2.2 36 46 -8.3 17.1 2.683 0.106
06:52 1010 29.83 839 24.78 2.3 36.2 46 -8.2 17.2 2.746 0.108
06:53 1010 29.83 839 24.78 2.4 36.3 47 -7.7 18.1 2.796 0.11
06:54 1009 29.8 839 24.78 2.3 36.2 47 -7.8 18 2.74 0.108
06:55 1009 29.8 839 24.78 2.3 36.1 49 -7.3 18.8 2.689 0.106
06:56 1009 29.8 839 24.78 2.2 36 50 -7.2 19.1 2.644 0.104
06:57 1009 29.8 839 24.78 2.2 35.9 50 -7.1 19.2 2.598 0.102
06:58 1009 29.8 839 24.78 2.1 35.8 50 -7.4 18.7 2.462 0.097
06:59 1009 29.8 839 24.78 1.9 35.4 50 -7.5 18.5 2.179 0.086
07:00 1009 29.8 839 24.78 1.5 34.8 53 -7 19.5 1.907 0.075
07:01 1009 29.8 839 24.78 1.3 34.3 57 -6.4 20.5 1.573 0.062
07:02 1009 29.8 838 24.75 1 33.8 57 -6.6 20.1 1.296 0.051
07:03 1009 29.8 838 24.75 0.8 33.4 56 -7 19.3 1.148 0.045
07:04 1009 29.8 838 24.75 0.7 33.2 58 -6.6 20.1 1.013 0.04
07:05 1009 29.8 838 24.75 0.5 32.9 58 -6.7 19.9 0.871 0.034
07:06 1009 29.8 838 24.75 0.4 32.7 61 -6.4 20.5 0.741 0.029
07:07 1009 29.8 838 24.75 0.2 32.3 62 -6.3 20.7 0.537 0.021
07:08 1009 29.8 838 24.75 -0.1 31.8 63 -6.3 20.7 0.299 0.012
07:09 1009 29.8 838 24.75 -0.4 31.2 64 -6.4 20.4 -0.018 -0.001
07:10 1009 29.8 838 24.75 -0.7 30.8 66 -6.2 20.8 -0.307 -0.012
07:11 1009 29.8 838 24.75 -0.9 30.4 66 -6.4 20.4 -0.533 -0.021
07:12 1009 29.8 838 24.75 -1 30.1 66 -6.6 20.1 -0.624 -0.025
07:13 1009 29.8 838 24.75 -1.1 29.9 67 -6.5 20.4 -0.726 -0.029
07:14 1009 29.8 838 24.75 -1.2 29.9 66 -6.7 19.9 -0.726 -0.029
07:15 1009 29.8 838 24.75 -1.2 29.9 66 -6.7 20 -0.709 -0.028
07:16 1009 29.8 838 24.75 -1.1 30.1 66 -6.6 20.2 -0.647 -0.025
07:17 1009 29.8 838 24.75 -1.1 30.1 65 -6.7 19.9 -0.652 -0.026
07:18 1009 29.8 838 24.75 -1.1 30 65 -6.9 19.7 -0.669 -0.026
07:19 1009 29.8 838 24.75 -1.1 30.1 66 -6.6 20.1 -0.647 -0.025
07:20 1009 29.8 838 24.75 -1.1 30.1 65 -6.8 19.8 -0.613 -0.024
07:21 1009 29.8 838 24.75 -1.1 30.1 65 -6.8 19.7 -0.624 -0.025
07:22 1009 29.8 838 24.75 -1 30.2 66 -6.7 20 -0.567 -0.022
07:23 1009 29.8 838 24.75 -1 30.2 66 -6.6 20.1 -0.562 -0.022
07:24 1009 29.8 838 24.75 -1 30.3 64 -6.9 19.6 -0.539 -0.021
07:25 1009 29.8 838 24.75 -0.9 30.3 62 -7.2 19 -0.46 -0.018
07:26 1009 29.8 838 24.75 -0.8 30.5 63 -6.9 19.5 -0.375 -0.015
07:27 1009 29.8 838 24.75 -0.8 30.6 65 -6.6 20.2 -0.347 -0.014
07:28 1009 29.8 838 24.75 -0.9 30.4 65 -6.7 19.9 -0.426 -0.017
07:29 1009 29.8 838 24.75 -0.9 30.4 66 -6.6 20.2 -0.511 -0.02
07:30 1009 29.8 838 24.75 -1 30.2 66 -6.6 20.2 -0.63 -0.025
07:31 1009 29.8 838 24.75 -1.1 30 66 -6.7 20 -0.737 -0.029
07:32 1009 29.8 838 24.75 -1.2 29.8 67 -6.5 20.2 -0.805 -0.032
07:33 1009 29.8 838 24.75 -1.3 29.6 67 -6.7 20 -0.907 -0.036
07:34 1009 29.8 838 24.75 -1.4 29.5 67 -6.8 19.8 -1.015 -0.04
07:35 1009 29.8 838 24.75 -1.5 29.3 67 -6.9 19.6 -1.077 -0.042
07:36 1009 29.8 838 24.75 -1.5 29.2 67 -6.8 19.8 -1.122 -0.044
07:37 1009 29.8 838 24.75 -1.6 29.2 68 -6.7 19.9 -1.173 -0.046
07:38 1009 29.8 838 24.75 -1.7 29 69 -6.6 20.1 -1.241 -0.049
07:39 1009 29.8 838 24.75 -1.8 28.8 70 -6.5 20.3 -1.372 -0.054
07:40 1009 29.8 838 24.75 -1.9 28.6 71 -6.5 20.3 -1.445 -0.057
07:41 1009 29.8 838 24.75 -2 28.5 71 -6.6 20.1 -1.496 -0.059
07:42 1009 29.8 838 24.75 -2 28.4 72 -6.4 20.5 -1.547 -0.061
07:43 1009 29.8 838 24.75 -2.1 28.3 73 -6.3 20.7 -1.621 -0.064
07:44 1009 29.8 838 24.75 -2.1 28.2 74 -6.1 21 -1.677 -0.066
07:45 1009 29.8 838 24.75 -2.2 28 74 -6.2 20.8 -1.751 -0.069
07:46 1009 29.8 838 24.75 -2.2 28 74 -6.3 20.7 -1.785 -0.07
07:47 1009 29.8 838 24.75 -2.2 28 72 -6.5 20.2 -1.83 -0.072
07:48 1009 29.8 838 24.75 -2.2 28 72 -6.6 20.1 -1.734 -0.068
07:49 1009 29.8 838 24.75 -2.1 28.2 72 -6.6 20.1 -1.706 -0.067
07:50 1009 29.8 838 24.75 -2.1 28.2 71 -6.7 20 -1.638 -0.064
07:51 1009 29.8 838 24.75 -2.1 28.3 71 -6.6 20.1 -1.649 -0.065
07:52 1009 29.8 838 24.75 -2.1 28.2 71 -6.6 20.1 -1.66 -0.065
07:53 1009 29.8 838 24.75 -2.1 28.2 70 -6.8 19.8 -1.677 -0.066
07:54 1009 29.8 838 24.75 -2.1 28.3 72 -6.5 20.3 -1.608 -0.063
07:55 1009 29.8 838 24.75 -2.1 28.2 72 -6.5 20.3 -1.67 -0.066
07:56 1009 29.8 838 24.75 -2.1 28.1 73 -6.3 20.6 -1.682 -0.066
07:57 1009 29.8 838 24.75 -2.2 28 74 -6.3 20.6 -1.783 -0.07
07:58 1009 29.8 838 24.75 -2.3 27.8 74 -6.4 20.5 -1.873 -0.074
07:59 1009 29.8 838 24.75 -2.3 27.9 73 -6.5 20.3 -1.873 -0.074
08:00 1009 29.8 838 24.75 -1.9 28.5 68 -7.1 19.2 -1.249 -0.049
08:01 1009 29.8 838 24.75 -1.2 29.8 66 -6.7 20 -0.587 -0.023
08:02 1009 29.8 838 24.75 -0.9 30.4 65 -6.6 20.2 -0.479 -0.019
08:03 1009 29.8 838 24.75 -0.8 30.5 66 -6.5 20.3 -0.433 -0.017
08:04 1009 29.8 838 24.75 -0.8 30.5 66 -6.5 20.4 -0.428 -0.017
08:05 1009 29.8 838 24.75 -0.8 30.6 65 -6.6 20.2 -0.348 -0.014
08:06 1009 29.8 838 24.75 -0.7 30.7 65 -6.5 20.3 -0.319 -0.013
08:07 1009 29.8 838 24.75 -0.7 30.7 66 -6.4 20.5 -0.319 -0.013
08:08 1009 29.8 838 24.75 -0.8 30.6 68 -6 21.2 -0.381 -0.015
08:09 1009 29.8 838 24.75 -1.1 30 68 -6.2 20.9 -0.646 -0.025
08:10 1009 29.8 838 24.75 -1.2 29.8 69 -6.2 20.8 -0.822 -0.032
08:11 1009 29.8 838 24.75 -1.3 29.6 68 -6.4 20.5 -0.895 -0.035
08:12 1009 29.8 838 24.75 -1.3 29.7 67 -6.5 20.2 -0.877 -0.035
08:13 1009 29.8 838 24.75 -1 30.2 66 -6.6 20.1 -0.599 -0.024
08:14 1009 29.8 838 24.75 -0.9 30.5 65 -6.7 19.9 -0.486 -0.019
08:15 1009 29.8 838 24.75 -0.7 30.7 65 -6.4 20.5 -0.343 -0.014
08:16 1009 29.8 838 24.75 -0.6 30.9 64 -6.7 20 -0.151 -0.006
08:17 1009 29.8 838 24.75 -0.4 31.3 63 -6.6 20.2 0.082 0.003
08:18 1009 29.8 838 24.75 -0.3 31.5 64 -6.3 20.7 0.145 0.006
08:19 1009 29.8 838 24.75 -0.2 31.6 63 -6.5 20.3 0.173 0.007
08:20 1009 29.8 838 24.75 -0.2 31.7 62 -6.5 20.2 0.321 0.013
08:21 1009 29.8 838 24.75 -0.1 31.9 63 -6.2 20.9 0.338 0.013
08:22 1009 29.8 838 24.75 -0.1 31.7 63 -6.3 20.6 0.259 0.01
08:23 1009 29.8 838 24.75 -0.2 31.6 66 -5.8 21.5 0.208 0.008
08:24 1009 29.8 838 24.75 -0.4 31.3 66 -6 21.2 0.027 0.001
08:25 1009 29.8 838 24.75 -0.4 31.2 68 -5.7 21.7 -0.047 -0.002
08:26 1009 29.8 838 24.75 -0.6 30.9 71 -5.3 22.5 -0.176 -0.007
08:27 1009 29.8 838 24.75 -0.8 30.5 71 -5.4 22.3 -0.431 -0.017
08:28 1009 29.8 838 24.75 -1.2 29.9 74 -5.3 22.5 -0.754 -0.03
08:29 1009 29.8 838 24.75 -1.4 29.4 73 -5.6 21.8 -1.009 -0.04
08:30 1009 29.8 838 24.75 -1.6 29.2 74 -5.6 22 -1.122 -0.044
08:31 1009 29.8 838 24.75 -1.7 29 74 -5.7 21.7 -1.218 -0.048
08:32 1009 29.8 838 24.75 -1.7 28.9 73 -6 21.3 -1.275 -0.05
08:33 1009 29.8 838 24.75 -1.6 29.1 74 -5.7 21.7 -1.195 -0.047
08:34 1009 29.8 838 24.75 -1.5 29.3 72 -6 21.2 -1.088 -0.043
08:35 1009 29.8 838 24.75 -1.4 29.5 70 -6.2 20.9 -0.963 -0.038
08:36 1009 29.8 838 24.75 -1.2 29.9 69 -6.1 21 -0.714 -0.028
08:37 1009 29.8 838 24.75 -1 30.1 70 -5.9 21.4 -0.544 -0.021
08:38 1009 29.8 838 24.75 -0.9 30.3 70 -5.8 21.5 -0.504 -0.02
08:39 1009 29.8 838 24.75 -0.9 30.4 69 -5.9 21.3 -0.47 -0.019
08:40 1009 29.8 838 24.75 -0.9 30.4 70 -5.7 21.7 -0.475 -0.019
08:41 1009 29.8 838 24.75 -0.9 30.4 71 -5.5 22.1 -0.436 -0.017
08:42 1009 29.8 838 24.75 -0.9 30.4 71 -5.5 22.2 -0.436 -0.017
08:43 1009 29.8 838 24.75 -0.9 30.4 71 -5.4 22.2 -0.441 -0.017
08:44 1009 29.8 838 24.75 -0.9 30.4 71 -5.5 22.1 -0.464 -0.018
08:45 1009 29.8 838 24.75 -1 30.2 72 -5.5 22 -0.498 -0.02
08:46 1009 29.8 838 24.75 -1.1 30.1 72 -5.5 22.1 -0.572 -0.023
08:47 1009 29.8 838 24.75 -1.1 30.1 71 -5.7 21.8 -0.6 -0.024
08:48 1009 29.8 838 24.75 -1 30.2 70 -5.9 21.4 -0.526 -0.021
08:49 1009 29.8 838 24.75 -0.8 30.5 68 -6.1 21.1 -0.299 -0.012
08:50 1009 29.8 838 24.75 -0.6 31 66 -6.1 21.1 -0.039 -0.002
08:51 1009 29.8 838 24.75 -0.3 31.5 64 -6.2 20.8 0.244 0.01
08:52 1009 29.8 838 24.75 -0 32 64 -6.1 21.1 0.477 0.019
08:53 1009 29.8 838 24.75 0.2 32.3 63 -6 21.1 0.647 0.025
08:54 1009 29.8 838 24.75 0.4 32.7 62 -6 21.2 0.868 0.034
08:55 1009 29.8 838 24.75 0.7 33.3 60 -6.1 21 1.304 0.051
08:56 1008 29.77 838 24.75 1.2 34.2 60 -5.6 21.9 1.763 0.069
08:57 1008 29.77 838 24.75 1.5 34.7 58 -5.9 21.4 1.967 0.077
08:58 1008 29.77 838 24.75 1.8 35.2 58 -5.8 21.6 2.216 0.087
08:59 1008 29.77 838 24.75 1.9 35.4 57 -5.8 21.6 2.324 0.091
09:00 1008 29.77 838 24.75 2 35.6 57 -5.7 21.7 2.38 0.094
09:01 1008 29.77 838 24.75 2 35.6 57 -5.6 21.9 2.437 0.096
09:02 1008 29.77 838 24.75 2.1 35.7 56 -5.8 21.6 2.443 0.096
09:03 1008 29.77 838 24.75 2.1 35.8 58 -5.4 22.3 2.545 0.1
09:04 1008 29.77 838 24.75 2.2 35.9 57 -5.4 22.2 2.573 0.101
09:05 1009 29.8 838 24.75 2.2 35.9 57 -5.4 22.2 2.573 0.101
09:06 1008 29.77 838 24.75 2.2 35.9 55 -5.9 21.3 2.573 0.101
09:07 1009 29.8 838 24.75 2.2 36 55 -5.9 21.4 2.63 0.104
09:08 1009 29.8 838 24.75 2.2 36 56 -5.7 21.8 2.618 0.103
09:09 1009 29.8 838 24.75 2.2 36 57 -5.4 22.2 2.601 0.102
09:10 1009 29.8 838 24.75 2.2 36 55 -5.9 21.4 2.618 0.103
09:11 1009 29.8 838 24.75 2.3 36.1 56 -5.6 21.8 2.635 0.104
09:12 1009 29.8 838 24.75 2.3 36.1 56 -5.7 21.7 2.658 0.105
09:13 1009 29.8 838 24.75 2.3 36.1 56 -5.6 21.9 2.664 0.105
09:14 1009 29.8 838 24.75 2.2 36 56 -5.8 21.6 2.607 0.103
09:15 1009 29.8 838 24.75 2.3 36.1 55 -5.9 21.5 2.675 0.105
09:16 1008 29.77 838 24.75 2.3 36.2 56 -5.7 21.8 2.72 0.107
09:17 1008 29.77 838 24.75 2.4 36.3 56 -5.5 22.1 2.754 0.108
09:18 1008 29.77 838 24.75 2.3 36.2 57 -5.3 22.4 2.72 0.107
09:19 1008 29.77 838 24.75 2.3 36.1 56 -5.6 22 2.652 0.104
09:20 1008 29.77 838 24.75 2.3 36.2 56 -5.6 21.9 2.669 0.105
09:21 1008 29.77 838 24.75 2.3 36.2 57 -5.4 22.2 2.726 0.107
09:22 1008 29.77 838 24.75 2.3 36.1 56 -5.5 22.1 2.651 0.104
09:23 1008 29.77 838 24.75 2.3 36.2 56 -5.5 22 2.674 0.105
09:24 1008 29.77 838 24.75 2.4 36.3 56 -5.6 21.9 2.764 0.109
09:25 1008 29.77 838 24.75 2.4 36.3 56 -5.5 22.1 2.797 0.11
09:26 1008 29.77 838 24.75 2.5 36.5 56 -5.4 22.3 2.837 0.112
09:27 1008 29.77 838 24.75 2.5 36.5 55 -5.6 22 2.848 0.112
09:28 1008 29.77 838 24.75 2.5 36.5 55 -5.6 21.9 2.87 0.113
09:29 1008 29.77 838 24.75 2.5 36.6 55 -5.5 22 2.875 0.113
09:30 1008 29.77 838 24.75 2.5 36.6 55 -5.6 22 2.915 0.115
09:31 1008 29.77 837 24.72 2.5 36.5 55 -5.7 21.8 2.875 0.113
09:32 1008 29.77 838 24.75 2.5 36.6 55 -5.6 21.9 2.931 0.115
09:33 1008 29.77 837 24.72 2.5 36.6 55 -5.6 21.8 2.919 0.115
09:34 1008 29.77 837 24.72 2.6 36.6 56 -5.3 22.4 2.941 0.116
09:35 1008 29.77 837 24.72 2.6 36.6 56 -5.3 22.5 2.946 0.116
09:36 1008 29.77 837 24.72 2.6 36.6 55 -5.5 22.1 2.906 0.114
09:37 1008 29.77 837 24.72 2.6 36.6 57 -5.1 22.8 2.933 0.115
09:38 1008 29.77 837 24.72 2.6 36.6 56 -5.2 22.6 2.956 0.116
09:39 1008 29.77 837 24.72 2.6 36.6 55 -5.5 22.2 2.904 0.114
09:40 1008 29.77 837 24.72 2.6 36.6 54 -5.8 21.6 2.955 0.116
09:41 1008 29.77 837 24.72 2.6 36.7 55 -5.4 22.3 3.034 0.119
09:42 1008 29.77 837 24.72 2.6 36.8 55 -5.4 22.2 2.994 0.118
09:43 1008 29.77 837 24.72 2.6 36.7 55 -5.6 22 3.005 0.118
09:44 1008 29.77 837 24.72 2.6 36.7 55 -5.6 21.9 2.999 0.118
09:45 1008 29.77 837 24.72 2.7 36.8 55 -5.5 22.2 3.027 0.119
09:46 1008 29.77 837 24.72 2.7 36.9 54 -5.7 21.8 3.145 0.124
09:47 1008 29.77 837 24.72 2.8 37 54 -5.6 22 3.191 0.126
09:48 1008 29.77 837 24.72 2.8 37.1 55 -5.4 22.3 3.184 0.125
09:49 1008 29.77 837 24.72 2.8 37 54 -5.6 21.8 3.156 0.124
09:50 1008 29.77 837 24.72 2.8 37.1 56 -5.1 22.8 3.145 0.124
09:51 1008 29.77 837 24.72 2.8 37 56 -5.1 22.9 3.127 0.123
09:52 1008 29.77 837 24.72 2.8 37 54 -5.6 21.8 3.201 0.126
09:53 1008 29.77 837 24.72 2.9 37.2 55 -5.4 22.3 3.303 0.13
09:54 1008 29.77 837 24.72 3 37.3 53 -5.7 21.8 3.359 0.132
09:55 1008 29.77 837 24.72 3.1 37.5 52 -5.9 21.3 3.444 0.136
09:56 1008 29.77 837 24.72 3.2 37.7 52 -5.8 21.6 3.563 0.14
09:57 1008 29.77 837 24.72 3.2 37.8 54 -5.3 22.5 3.596 0.142
09:58 1008 29.77 837 24.72 3.2 37.8 54 -5.2 22.6 3.591 0.141
09:59 1008 29.77 837 24.72 3.3 37.9 53 -5.5 22.1 3.647 0.144
10:00 1008 29.77 837 24.72 3.3 38 51 -5.9 21.4 3.653 0.144
10:01 1008 29.77 837 24.72 3.4 38.1 53 -5.3 22.5 3.766 0.148
10:02 1008 29.77 837 24.72 3.4 38.1 55 -4.7 23.5 3.687 0.145
10:03 1008 29.77 837 24.72 3 37.3 59 -4.2 24.4 3.352 0.132
10:04 1008 29.77 837 24.72 2.3 36.2 62 -4.2 24.4 2.803 0.11
10:05 1008 29.77 837 24.72 1.8 35.2 63 -4.4 24.1 2.237 0.088
10:06 1008 29.77 837 24.72 1.4 34.6 64 -4.6 23.7 1.863 0.073
10:07 1008 29.77 837 24.72 1.2 34.2 67 -4.3 24.3 1.619 0.064
10:08 1008 29.77 837 24.72 1.1 33.9 68 -4.1 24.6 1.472 0.058
10:09 1008 29.77 837 24.72 1 33.8 68 -4.2 24.5 1.398 0.055
10:10 1008 29.77 837 24.72 1 33.9 69 -4 24.8 1.398 0.055
10:11 1008 29.77 837 24.72 1.1 34 66 -4.5 24 1.438 0.057
10:12 1008 29.77 837 24.72 1.2 34.2 66 -4.4 24.1 1.506 0.059
10:13 1008 29.77 837 24.72 1.3 34.3 69 -3.8 25.1 1.483 0.058
10:14 1008 29.77 837 24.72 1.3 34.3 69 -3.8 25.1 1.477 0.058
10:15 1008 29.77 837 24.72 1.4 34.5 70 -3.5 25.8 1.551 0.061
10:16 1008 29.77 837 24.72 1.5 34.7 69 -3.6 25.5 1.613 0.064
10:17 1008 29.77 837 24.72 1.5 34.7 68 -3.7 25.3 1.721 0.068
10:18 1008 29.77 837 24.72 1.5 34.7 67 -4 24.8 1.726 0.068
10:19 1008 29.77 837 24.72 1.5 34.8 65 -4.3 24.3 1.726 0.068
10:20 1008 29.77 837 24.72 1.6 34.9 65 -4.3 24.2 1.771 0.07
10:21 1008 29.77 837 24.72 1.7 35.1 65 -4.2 24.5 1.883 0.074
10:22 1008 29.77 837 24.72 1.9 35.5 64 -4.2 24.4 1.934 0.076
10:23 1008 29.77 837 24.72 2.1 35.8 63 -4.2 24.4 2.058 0.081
10:24 1008 29.77 837 24.72 2.2 36 65 -3.7 25.4 2.12 0.083
10:25 1008 29.77 837 24.72 2.3 36.1 63 -4 24.7 2.131 0.084
10:26 1008 29.77 837 24.72 2.2 36 62 -4.3 24.2 2.165 0.085
10:27 1008 29.77 837 24.72 2.2 35.9 64 -4 24.8 2.181 0.086
10:28 1008 29.77 837 24.72 2.2 36 60 -4.7 23.6 2.198 0.087
10:29 1008 29.77 837 24.72 2.2 36 60 -4.8 23.3 2.198 0.087
10:30 1008 29.77 837 24.72 2.2 36 58 -5.1 22.7 2.135 0.084
10:31 1008 29.77 837 24.72 2.1 35.8 58 -5.3 22.5 2.113 0.083
10:32 1008 29.77 837 24.72 2.2 35.9 63 -4.2 24.5 2.163 0.085
10:33 1008 29.77 837 24.72 2.1 35.8 63 -4.2 24.5 2.135 0.084
10:34 1008 29.77 837 24.72 1.9 35.3 66 -3.8 25.1 1.942 0.076
10:35 1008 29.77 837 24.72 1.8 35.2 64 -4.3 24.3 1.924 0.076
10:36 1008 29.77 837 24.72 1.9 35.4 66 -3.9 25 1.957 0.077
10:37 1008 29.77 837 24.72 2 35.5 66 -3.7 25.4 2.042 0.08
10:38 1008 29.77 837 24.72 1.9 35.5 65 -3.9 25 2.024 0.08
10:39 1008 29.77 837 24.72 2.1 35.7 64 -4 24.7 2.12 0.083
10:40 1008 29.77 837 24.72 2.1 35.8 65 -3.7 25.4 2.137 0.084
10:41 1008 29.77 837 24.72 2.1 35.8 65 -3.8 25.2 2.17 0.085
10:42 1008 29.77 837 24.72 2.1 35.8 66 -3.6 25.4 2.192 0.086
10:43 1008 29.77 837 24.72 2.1 35.7 63 -4.3 24.3 2.124 0.084
10:44 1008 29.77 837 24.72 1.9 35.3 65 -4 24.8 1.92 0.076
10:45 1008 29.77 837 24.72 1.6 34.9 67 -3.9 25 1.755 0.069
10:46 1008 29.77 837 24.72 1.6 34.9 65 -4.2 24.4 1.744 0.069
10:47 1008 29.77 837 24.72 1.4 34.6 65 -4.3 24.2 1.568 0.062
10:48 1008 29.77 837 24.72 1.3 34.4 66 -4.4 24 1.477 0.058
10:49 1008 29.77 837 24.72 1.3 34.3 68 -3.9 25 1.432 0.056
10:50 1008 29.77 837 24.72 1.4 34.4 66 -4.4 24.1 1.505 0.059
10:51 1008 29.77 837 24.72 1.4 34.5 64 -4.7 23.6 1.494 0.059
10:52 1008 29.77 837 24.72 1.4 34.5 65 -4.4 24.1 1.437 0.057
10:53 1008 29.77 837 24.72 1.3 34.3 66 -4.4 24.1 1.386 0.055
10:54 1008 29.77 837 24.72 1.2 34.1 68 -4.1 24.6 1.289 0.051
10:55 1008 29.77 837 24.72 1.1 34 68 -4.2 24.4 1.272 0.05
10:56 1008 29.77 837 24.72 1.1 34 67 -4.3 24.2 1.363 0.054
10:57 1008 29.77 837 24.72 1.2 34.2 66 -4.4 24.2 1.312 0.052
10:58 1008 29.77 837 24.72 1.4 34.4 67 -4 24.8 1.447 0.057
10:59 1008 29.77 837 24.72 1.6 34.8 68 -3.8 25.2 1.589 0.063
11:00 1008 29.77 837 24.72 1.7 35 66 -4 24.9 1.64 0.065
11:01 1008 29.77 837 24.72 1.6 35 65 -4.1 24.5 1.623 0.064
11:02 1008 29.77 837 24.72 1.5 34.8 66 -4.1 24.5 1.566 0.062
11:03 1008 29.77 837 24.72 1.6 34.9 67 -3.8 25.2 1.73 0.068
11:04 1008 29.77 837 24.72 1.8 35.3 66 -3.9 25 1.894 0.075
11:05 1008 29.77 837 24.72 1.9 35.4 66 -3.8 25.2 1.928 0.076
11:06 1008 29.77 837 24.72 1.9 35.4 66 -3.9 25 1.99 0.078
11:07 1008 29.77 837 24.72 1.9 35.3 64 -4.2 24.4 1.922 0.076
11:08 1008 29.77 837 24.72 1.8 35.2 65 -4.2 24.5 1.798 0.071
11:09 1008 29.77 837 24.72 1.7 35 66 -4 24.7 1.747 0.069
11:10 1008 29.77 837 24.72 1.6 35 68 -3.7 25.3 1.69 0.067
11:11 1008 29.77 837 24.72 1.6 34.9 67 -3.9 25 1.633 0.064
11:12 1008 29.77 837 24.72 1.6 34.9 67 -3.9 24.9 1.611 0.063
11:13 1008 29.77 837 24.72 1.5 34.8 66 -4.2 24.5 1.588 0.063
11:14 1008 29.77 837 24.72 1.5 34.7 67 -4 24.9 1.56 0.061
11:15 1008 29.77 837 24.72 1.4 34.6 67 -4 24.7 1.565 0.062
11:16 1008 29.77 837 24.72 1.4 34.6 69 -3.6 25.4 1.525 0.06
11:17 1008 29.77 837 24.72 1.5 34.7 69 -3.7 25.4 1.548 0.061
11:18 1008 29.77 837 24.72 1.5 34.7 69 -3.6 25.6 1.661 0.065
11:19 1008 29.77 837 24.72 1.5 34.6 69 -3.7 25.4 1.678 0.066
11:20 1007 29.74 837 24.72 1.3 34.4 69 -3.8 25.2 1.656 0.065
11:21 1007 29.74 837 24.72 1.2 34.1 70 -3.7 25.3 1.548 0.061
11:22 1007 29.74 837 24.72 1 33.9 71 -3.7 25.3 1.423 0.056
11:23 1007 29.74 837 24.72 0.9 33.7 72 -3.5 25.6 1.372 0.054
11:24 1007 29.74 837 24.72 1 33.8 72 -3.5 25.7 1.406 0.055
11:25 1007 29.74 837 24.72 1.1 33.9 71 -3.7 25.3 1.452 0.057
11:26 1007 29.74 837 24.72 1.1 34 70 -3.7 25.3 1.491 0.059
11:27 1007 29.74 837 24.72 1.1 34.1 69 -4 24.8 1.491 0.059
11:28 1007 29.74 837 24.72 1 33.9 70 -3.9 25.1 1.452 0.057
11:29 1007 29.74 837 24.72 1 33.8 70 -3.8 25.2 1.418 0.056
11:30 1007 29.74 837 24.72 0.9 33.7 72 -3.6 25.5 1.355 0.053
11:31 1007 29.74 837 24.72 0.9 33.6 72 -3.5 25.6 1.344 0.053
11:32 1007 29.74 836 24.69 1 33.7 71 -3.7 25.3 1.395 0.055
11:33 1007 29.74 836 24.69 1 33.9 69 -4 24.9 1.418 0.056
11:34 1007 29.74 836 24.69 1.1 34 70 -3.9 25.1 1.435 0.056
11:35 1007 29.74 836 24.69 1.1 34.1 70 -3.8 25.2 1.457 0.057
11:36 1007 29.74 836 24.69 1.2 34.2 70 -3.7 25.3 1.474 0.058
11:37 1007 29.74 836 24.69 1.3 34.3 70 -3.7 25.3 1.491 0.059
11:38 1007 29.74 836 24.69 1.2 34.2 69 -3.7 25.3 1.497 0.059
11:39 1007 29.74 836 24.69 1.2 34.2 71 -3.5 25.7 1.508 0.059
11:40 1007 29.74 836 24.69 1.2 34.2 70 -3.6 25.5 1.52 0.06
11:41 1007 29.74 836 24.69 1.2 34.2 69 -3.8 25.2 1.548 0.061
11:42 1007 29.74 836 24.69 1.2 34.1 70 -3.7 25.3 1.576 0.062
11:43 1007 29.74 836 24.69 1.2 34.2 71 -3.4 25.9 1.621 0.064
11:44 1007 29.74 836 24.69 1.3 34.3 70 -3.5 25.6 1.78 0.07
11:45 1007 29.74 836 24.69 1.3 34.3 71 -3.5 25.7 1.854 0.073
11:46 1007 29.74 836 24.69 1.3 34.4 70 -3.6 25.5 1.842 0.073
11:47 1007 29.74 836 24.69 1.3 34.3 69 -3.8 25.1 1.791 0.071
11:48 1007 29.74 836 24.69 1.3 34.3 70 -3.6 25.6 1.735 0.068
11:49 1007 29.74 836 24.69 1.3 34.3 70 -3.6 25.6 1.706 0.067
11:50 1007 29.74 836 24.69 1.3 34.4 70 -3.5 25.7 1.752 0.069
11:51 1007 29.74 836 24.69 1.4 34.6 70 -3.5 25.7 1.808 0.071
11:52 1007 29.74 836 24.69 1.5 34.8 70 -3.3 26 1.865 0.073
11:53 1007 29.74 836 24.69 1.7 35 70 -3.3 26.1 2.029 0.08
11:54 1007 29.74 836 24.69 1.7 35.1 70 -3.2 26.2 2.171 0.085
11:55 1007 29.74 836 24.69 1.8 35.2 68 -3.5 25.6 2.171 0.085
11:56 1007 29.74 836 24.69 1.8 35.3 68 -3.5 25.7 2.108 0.083
11:57 1007 29.74 836 24.69 1.9 35.4 68 -3.3 26 2.159 0.085
11:58 1007 29.74 836 24.69 2 35.5 66 -3.7 25.3 2.335 0.092
11:59 1007 29.74 836 24.69 2 35.6 66 -3.7 25.3 2.437 0.096
12:00 1007 29.74 836 24.69 2.1 35.8 67 -3.4 25.9 2.589 0.102
12:01 1007 29.74 836 24.69 2.1 35.7 68 -3.2 26.2 2.612 0.103
12:02 1007 29.74 836 24.69 1.9 35.5 67 -3.5 25.7 2.538 0.1
12:03 1007 29.74 836 24.69 2 35.5 67 -3.6 25.6 2.482 0.098
12:04 1007 29.74 836 24.69 2.1 35.8 67 -3.4 25.8 2.635 0.104
12:05 1007 29.74 836 24.69 2.3 36.1 67 -3.2 26.3 2.765 0.109
12:06 1007 29.74 836 24.69 2.3 36.1 68 -3 26.6 2.742 0.108
12:07 1007 29.74 836 24.69 2.3 36.1 68 -3.1 26.4 2.72 0.107
12:08 1007 29.74 836 24.69 2.3 36.2 68 -3 26.6 2.748 0.108
12:09 1007 29.74 836 24.69 2.5 36.5 68 -2.8 27 2.867 0.113
12:10 1007 29.74 836 24.69 2.6 36.7 65 -3.2 26.2 3.037 0.12
12:11 1007 29.74 836 24.69 2.7 36.8 64 -3.4 25.9 3.133 0.123
12:12 1007 29.74 836 24.69 2.8 37.1 64 -3.3 26.1 3.201 0.126
12:13 1007 29.74 836 24.69 3 37.5 63 -3.3 26 3.484 0.137
12:14 1007 29.74 836 24.69 3.1 37.6 62 -3.5 25.8 3.75 0.148
12:15 1007 29.74 836 24.69 3.2 37.7 62 -3.4 25.8 3.858 0.152
12:16 1007 29.74 836 24.69 3.3 37.9 64 -2.8 26.9 3.676 0.145
12:17 1007 29.74 836 24.69 3.3 37.9 66 -2.5 27.4 3.546 0.14
12:18 1007 29.74 836 24.69 3.2 37.8 65 -2.8 27 3.439 0.135
12:19 1007 29.74 836 24.69 3.2 37.8 63 -3.2 26.2 3.444 0.136
12:20 1007 29.74 836 24.69 3.2 37.8 61 -3.5 25.7 3.41 0.134
12:21 1007 29.74 836 24.69 3.2 37.7 63 -3.3 26.1 3.342 0.132
12:22 1007 29.74 836 24.69 3 37.4 64 -3.1 26.4 3.229 0.127
12:23 1007 29.74 836 24.69 3.1 37.5 64 -3 26.5 3.274 0.129
12:24 1007 29.74 836 24.69 3.2 37.7 65 -2.9 26.8 3.433 0.135
12:25 1007 29.74 836 24.69 3.3 37.9 60 -3.7 25.4 3.461 0.136
12:26 1007 29.74 836 24.69 3.2 37.8 62 -3.3 26.1 3.467 0.136
12:27 1007 29.74 836 24.69 3.1 37.7 62 -3.5 25.7 3.461 0.136
12:28 1007 29.74 836 24.69 3.1 37.6 62 -3.4 25.9 3.422 0.135
12:29 1007 29.74 836 24.69 3.2 37.7 63 -3.2 26.2 3.405 0.134
12:30 1007 29.74 836 24.69 3.1 37.7 64 -3 26.6 3.348 0.132
12:31 1007 29.74 836 24.69 3.2 37.7 61 -3.6 25.6 3.388 0.133
12:32 1007 29.74 836 24.69 3.1 37.7 62 -3.4 25.9 3.416 0.134
12:33 1007 29.74 836 24.69 3.2 37.7 64 -3.1 26.5 3.433 0.135
12:34 1007 29.74 836 24.69 3.1 37.7 63 -3.3 26.1 3.433 0.135
12:35 1007 29.74 836 24.69 3.1 37.6 61 -3.7 25.3 3.393 0.134
12:36 1007 29.74 836 24.69 3.1 37.5 62 -3.5 25.7 3.382 0.133
12:37 1007 29.74 836 24.69 3.1 37.5 61 -3.8 25.1 3.354 0.132
12:38 1007 29.74 836 24.69 3.1 37.5 62 -3.4 25.8 3.359 0.132
12:39 1007 29.74 836 24.69 3.1 37.5 62 -3.5 25.6 3.399 0.134
12:40 1007 29.74 836 24.69 3.1 37.6 61 -3.6 25.5 3.416 0.134
12:41 1007 29.74 836 24.69 3.2 37.7 62 -3.3 26 3.466 0.136
12:42 1007 29.74 836 24.69 3.3 37.9 62 -3.2 26.2 3.584 0.141
12:43 1007 29.74 836 24.69 3.4 38.1 64 -2.8 27 3.669 0.144
12:44 1007 29.74 836 24.69 3.4 38.2 64 -2.7 27.1 3.697 0.146
12:45 1007 29.74 836 24.69 3.5 38.3 62 -3.2 26.3 3.742 0.147
12:46 1007 29.74 836 24.69 3.5 38.3 61 -3.4 25.9 3.719 0.146
12:47 1007 29.74 836 24.69 3.5 38.3 61 -3.3 26.1 3.741 0.147
12:48 1007 29.74 836 24.69 3.6 38.4 62 -3.1 26.5 3.792 0.149
12:49 1007 29.74 836 24.69 3.6 38.5 62 -3 26.5 3.826 0.151
12:50 1007 29.74 836 24.69 3.7 38.7 61 -3.2 26.2 3.887 0.153
12:51 1007 29.74 836 24.69 3.8 38.9 63 -2.6 27.3 4.034 0.159
12:52 1007 29.74 836 24.69 3.9 39.1 64 -2.3 27.8 4.131 0.163
12:53 1007 29.74 836 24.69 4 39.2 58 -3.4 25.9 4.243 0.167
12:54 1007 29.74 836 24.69 4.1 39.4 61 -2.7 27.1 4.254 0.167
12:55 1007 29.74 836 24.69 4.1 39.4 59 -3.3 26.1 4.339 0.171
12:56 1007 29.74 836 24.69 4.2 39.5 63 -2.3 27.8 4.356 0.171
12:57 1007 29.74 836 24.69 4.2 39.6 60 -2.8 27 4.48 0.176
12:58 1007 29.74 836 24.69 4.3 39.7 60 -2.8 27 4.441 0.175
12:59 1007 29.74 836 24.69 4.2 39.6 61 -2.6 27.4 4.429 0.174
13:00 1007 29.74 836 24.69 4.2 39.5 63 -2.1 28.1 4.412 0.174
13:01 1007 29.74 836 24.69 4.1 39.5 61 -2.8 27 4.423 0.174
13:02 1007 29.74 836 24.69 4.2 39.5 61 -2.8 27 4.474 0.176
13:03 1007 29.74 836 24.69 4.2 39.5 59 -3.2 26.3 4.57 0.18
13:04 1007 29.74 836 24.69 4.4 39.8 60 -2.7 27.1 4.672 0.184
13:05 1007 29.74 836 24.69 4.6 40.2 60 -2.5 27.5 4.768 0.188
13:06 1007 29.74 836 24.69 4.8 40.6 57 -3.1 26.5 4.949 0.195
13:07 1006 29.71 836 24.69 5 40.9 59 -2.4 27.6 5.085 0.2
13:08 1006 29.71 836 24.69 5.1 41.1 59 -2.3 27.9 5.208 0.205
13:09 1006 29.71 836 24.69 5.1 41.2 60 -1.9 28.5 5.293 0.208
13:10 1006 29.71 836 24.69 5.3 41.5 59 -2 28.4 5.394 0.212
13:11 1006 29.71 836 24.69 5.4 41.7 61 -1.5 29.3 5.501 0.217
13:12 1006 29.71 836 24.69 5.3 41.6 56 -2.7 27.2 5.478 0.216
13:13 1006 29.71 836 24.69 5.4 41.7 60 -1.8 28.7 5.568 0.219
13:14 1006 29.71 836 24.69 5.3 41.6 61 -1.6 29.1 5.505 0.217
13:15 1006 29.71 836 24.69 5.2 41.4 56 -2.8 26.9 5.375 0.212
13:16 1006 29.71 836 24.69 5.1 41.2 58 -2.6 27.4 5.267 0.207
13:17 1006 29.71 836 24.69 5.2 41.3 55 -3.2 26.2 5.352 0.211
13:18 1006 29.71 836 24.69 5.4 41.8 53 -3.5 25.7 5.64 0.222
13:19 1006 29.71 836 24.69 5.8 42.5 51 -3.6 25.6 6.025 0.237
13:20 1006 29.71 835 24.66 6.1 43 52 -2.9 26.7 6.149 0.242
13:21 1006 29.71 835 24.66 6.1 42.9 51 -3.4 25.9 6.149 0.242
13:22 1006 29.71 835 24.66 6.1 42.9 53 -2.9 26.8 6.115 0.241
13:23 1006 29.71 835 24.66 6.1 42.9 54 -2.4 27.7 6.171 0.243
13:24 1006 29.71 835 24.66 6.1 43 53 -2.7 27.2 6.205 0.244
13:25 1006 29.71 835 24.66 6 42.8 52 -3.1 26.5 6.086 0.24
13:26 1006 29.71 835 24.66 6 42.7 54 -2.7 27.1 6.097 0.24
13:27 1006 29.71 835 24.66 6 42.8 52 -3 26.6 6.199 0.244
13:28 1006 29.71 835 24.66 6.2 43.1 50 -3.4 25.9 6.34 0.25
13:29 1006 29.71 835 24.66 6.3 43.4 51 -3 26.6 6.476 0.255
13:30 1006 29.71 835 24.66 6.5 43.7 53 -2.4 27.7 6.651 0.262
13:31 1006 29.71 835 24.66 6.6 43.9 50 -2.9 26.7 6.798 0.268
13:32 1006 29.71 835 24.66 6.9 44.3 52 -2.4 27.7 7.05 0.278
13:33 1006 29.71 835 24.66 7 44.7 49 -2.8 26.9 7.27 0.286
13:34 1006 29.71 835 24.66 7.4 45.3 42 -4.6 23.8 7.61 0.3
13:35 1006 29.71 835 24.66 7.7 45.8 44 -3.7 25.3 7.86 0.309
13:36 1006 29.71 835 24.66 7.9 46.2 41 -4.6 23.8 8.06 0.317
13:37 1006 29.71 835 24.66 7.9 46.2 40 -4.8 23.3 7.97 0.314
13:38 1006 29.71 835 24.66 8.1 46.5 41 -4.3 24.3 8.12 0.32
13:39 1006 29.71 835 24.66 8.3 46.9 38 -5 22.9 8.44 0.332
13:40 1006 29.71 835 24.66 8.4 47.1 40 -4.5 23.9 8.62 0.339
13:41 1006 29.71 835 24.66 8.3 47 38 -5 22.9 8.74 0.344
13:42 1006 29.71 835 24.66 8.3 47 39 -4.9 23.1 8.79 0.346
13:43 1006 29.71 835 24.66 8.6 47.4 37 -5.3 22.5 8.99 0.354
13:44 1006 29.71 835 24.66 8.8 47.8 38 -4.9 23.2 9.04 0.356
13:45 1006 29.71 835 24.66 8.8 47.8 41 -3.9 25 8.98 0.354
13:46 1006 29.71 835 24.66 8.8 47.8 39 -4.4 24.1 8.94 0.352
13:47 1006 29.71 835 24.66 8.6 47.5 45 -2.5 27.5 8.92 0.351
13:48 1006 29.71 835 24.66 8.5 47.3 44 -3 26.6 8.96 0.353
13:49 1006 29.71 835 24.66 8.4 47.1 47 -2.2 28 8.92 0.351
13:50 1006 29.71 835 24.66 8.3 47 39 -4.6 23.7 8.83 0.348
13:51 1006 29.71 835 24.66 8.3 46.9 40 -4.6 23.7 8.82 0.347
13:52 1006 29.71 835 24.66 8.4 47.1 43 -3.4 26 8.94 0.352
13:53 1006 29.71 835 24.66 8.5 47.3 44 -3 26.7 9.05 0.356
13:54 1006 29.71 835 24.66 8.5 47.3 51 -1.1 30 8.91 0.351
13:55 1006 29.71 835 24.66 8 46.4 55 -0.5 31.1 8.46 0.333
13:56 1006 29.71 835 24.66 7.7 45.8 56 -0.5 31 8.1 0.319
13:57 1006 29.71 835 24.66 7.4 45.4 58 -0.3 31.5 7.89 0.311
13:58 1006 29.71 835 24.66 7.3 45.1 58 -0.3 31.4 7.7 0.303
13:59 1006 29.71 835 24.66 7.1 44.8 56 -0.9 30.3 7.56 0.298
14:00 1006 29.71 835 24.66 7 44.6 57 -0.9 30.4 7.35 0.289
14:01 1006 29.71 835 24.66 6.9 44.4 60 -0.4 31.2 7.24 0.285
14:02 1006 29.71 835 24.66 6.8 44.3 58 -0.8 30.5 7.17 0.282
14:03 1006 29.71 835 24.66 6.9 44.3 56 -1.2 29.8 7.07 0.278
14:04 1006 29.71 835 24.66 6.8 44.2 57 -1.1 30.1 6.993 0.275
14:05 1006 29.71 835 24.66 6.8 44.2 61 -0.2 31.7 6.914 0.272
14:06 1006 29.71 835 24.66 6.8 44.2 53 -2.1 28.2 6.919 0.272
14:07 1006 29.71 835 24.66 6.9 44.4 57 -1.1 30 6.941 0.273
14:08 1006 29.71 835 24.66 6.9 44.4 53 -2.1 28.1 6.964 0.274
14:09 1006 29.71 835 24.66 7 44.5 54 -1.7 29 6.998 0.276
14:10 1006 29.71 835 24.66 7 44.5 54 -1.6 29.1 6.992 0.275
14:11 1006 29.71 835 24.66 6.9 44.3 53 -1.9 28.5 6.907 0.272
14:12 1006 29.71 835 24.66 6.8 44.2 54 -1.8 28.8 6.845 0.269
14:13 1006 29.71 835 24.66 6.8 44.2 56 -1.4 29.5 6.901 0.272
14:14 1006 29.71 835 24.66 6.8 44.3 56 -1.2 29.9 6.895 0.271
14:15 1006 29.71 835 24.66 6.9 44.3 54 -1.8 28.7 6.94 0.273
14:16 1006 29.71 835 24.66 6.9 44.5 54 -1.8 28.7 7.01 0.276
14:17 1006 29.71 835 24.66 7 44.6 54 -1.6 29.2 7.05 0.278
14:18 1006 29.71 835 24.66 7 44.6 52 -2.1 28.2 7.08 0.279
14:19 1006 29.71 835 24.66 7.1 44.7 52 -2.2 28.1 7.17 0.282
14:20 1006 29.71 835 24.66 7.1 44.8 50 -2.6 27.4 7.19 0.283
14:21 1006 29.71 835 24.66 7.1 44.7 50 -2.6 27.3 7.17 0.282
14:22 1006 29.71 835 24.66 7.1 44.7 49 -2.8 27 7.29 0.287
14:23 1006 29.71 835 24.66 7.2 45 50 -2.4 27.6 7.45 0.293
14:24 1006 29.71 835 24.66 7.3 45.1 49 -2.6 27.4 7.47 0.294
14:25 1006 29.71 835 24.66 7.3 45.1 53 -1.7 28.9 7.5 0.295
14:26 1006 29.71 835 24.66 7.3 45.2 50 -2.3 27.9 7.51 0.296
14:27 1006 29.71 835 24.66 7.3 45.2 53 -1.6 29 7.5 0.295
14:28 1006 29.71 835 24.66 7.3 45.2 52 -1.8 28.7 7.46 0.294
14:29 1006 29.71 835 24.66 7.3 45.2 54 -1.5 29.4 7.54 0.297
14:30 1006 29.71 835 24.66 7.4 45.3 52 -1.7 28.9 7.58 0.298
14:31 1006 29.71 835 24.66 7.4 45.4 51 -2 28.4 7.57 0.298
14:32 1006 29.71 835 24.66 7.5 45.5 53 -1.5 29.3 7.62 0.3
14:33 1006 29.71 835 24.66 7.5 45.5 47 -3.1 26.4 7.6 0.299
14:34 1006 29.71 835 24.66 7.5 45.5 42 -4.4 24 7.67 0.302
14:35 1006 29.71 835 24.66 7.5 45.5 38 -5.7 21.7 7.81 0.307
14:36 1006 29.71 835 24.66 7.6 45.7 42 -4.3 24.2 7.99 0.315
14:37 1006 29.71 835 24.66 7.7 45.9 43 -4.2 24.5 8.1 0.319
14:38 1006 29.71 835 24.66 7.7 45.9 42 -4.4 24.1 8.11 0.319
14:39 1006 29.71 835 24.66 7.6 45.7 47 -2.9 26.8 8.01 0.315
14:40 1006 29.71 835 24.66 7.5 45.4 42 -4.6 23.8 7.89 0.311
14:41 1006 29.71 835 24.66 7.4 45.3 43 -4.5 23.9 7.84 0.309
14:42 1006 29.71 835 24.66 7.4 45.3 50 -2.3 27.8 7.81 0.307
14:43 1006 29.71 835 24.66 7.2 45 49 -2.8 26.9 7.72 0.304
14:44 1006 29.71 835 24.66 7.2 44.9 47 -3.2 26.2 7.62 0.3
14:45 1006 29.71 835 24.66 7.1 44.8 48 -3.2 26.3 7.59 0.299
14:46 1006 29.71 835 24.66 7.1 44.8 49 -3 26.6 7.6 0.299
14:47 1006 29.71 835 24.66 7.1 44.7 48 -3.1 26.4 7.59 0.299
14:48 1006 29.71 835 24.66 7 44.6 47 -3.5 25.6 7.48 0.294
14:49 1006 29.71 835 24.66 7 44.6 48 -3.1 26.4 7.5 0.295
14:50 1006 29.71 835 24.66 7.1 44.7 51 -2.3 27.9 7.52 0.296
14:51 1006 29.71 835 24.66 7 44.6 52 -2.2 28 7.45 0.293
14:52 1006 29.71 835 24.66 7 44.6 48 -3.4 25.9 7.5 0.295
14:53 1006 29.71 835 24.66 7 44.6 52 -2 28.3 7.55 0.297
14:54 1006 29.71 835 24.66 7 44.6 52 -2.1 28.2 7.53 0.296
14:55 1006 29.71 835 24.66 7.1 44.7 48 -3.1 26.5 7.55 0.297
14:56 1006 29.71 835 24.66 7.2 44.9 55 -1.4 29.5 7.64 0.301
14:57 1006 29.71 835 24.66 7.2 45 54 -1.4 29.5 7.72 0.304
14:58 1006 29.71 835 24.66 7.3 45.2 53 -1.7 29 7.8 0.307
14:59 1006 29.71 835 24.66 7.4 45.4 53 -1.6 29.1 7.85 0.309
15:00 1006 29.71 835 24.66 7.5 45.4 49 -2.5 27.5 7.89 0.311
15:01 1006 29.71 835 24.66 7.5 45.6 50 -2.2 28.1 7.97 0.314
15:02 1006 29.71 835 24.66 7.6 45.6 50 -2.2 28 8.06 0.317
15:03 1006 29.71 835 24.66 7.6 45.6 50 -2.2 28.1 8.05 0.317
15:04 1006 29.71 835 24.66 7.5 45.5 53 -1.6 29.2 7.99 0.315
15:05 1006 29.71 835 24.66 7.5 45.4 52 -1.7 29 7.93 0.312
15:06 1006 29.71 835 24.66 7.4 45.3 51 -1.9 28.6 7.9 0.311
15:07 1006 29.71 835 24.66 7.4 45.2 47 -3.3 26.1 7.88 0.31
15:08 1006 29.71 835 24.66 7.4 45.3 49 -2.6 27.3 7.92 0.312
15:09 1006 29.71 835 24.66 7.4 45.3 48 -2.9 26.7 7.88 0.31
15:10 1006 29.71 835 24.66 7.4 45.3 51 -2.1 28.1 7.87 0.31
15:11 1006 29.71 836 24.69 7.4 45.3 57 -0.5 31.1 7.89 0.311
15:12 1006 29.71 836 24.69 7.3 45.1 53 -1.6 29.2 7.86 0.309
15:13 1006 29.71 836 24.69 7.2 44.9 57 -0.7 30.7 7.71 0.304
15:14 1006 29.71 836 24.69 7 44.6 57 -1 30.2 7.54 0.297
15:15 1006 29.71 836 24.69 7 44.5 58 -0.7 30.7 7.42 0.292
15:16 1006 29.71 836 24.69 6.9 44.5 58 -0.8 30.6 7.37 0.29
15:17 1006 29.71 836 24.69 7 44.5 59 -0.6 30.9 7.41 0.292
15:18 1006 29.71 836 24.69 7.1 44.7 58 -0.5 31.1 7.51 0.296
15:19 1006 29.71 836 24.69 7.3 45.1 57 -0.7 30.8 7.7 0.303
15:20 1007 29.74 836 24.69 7.5 45.5 56 -0.6 30.9 7.91 0.311
15:21 1007 29.74 836 24.69 7.7 45.9 54 -0.9 30.3 8.12 0.32
15:22 1007 29.74 836 24.69 7.8 46.1 51 -1.7 29 8.21 0.323
15:23 1006 29.71 836 24.69 7.9 46.3 46 -2.9 26.8 8.34 0.328
15:24 1007 29.74 836 24.69 8.2 46.7 46 -2.9 26.8 8.52 0.335
15:25 1007 29.74 836 24.69 8.5 47.2 50 -1.4 29.4 8.82 0.347
15:26 1007 29.74 836 24.69 8.7 47.6 50 -1.1 30.1 9.05 0.356
15:27 1007 29.74 836 24.69 8.7 47.7 49 -1.3 29.7 9.16 0.361
15:28 1007 29.74 836 24.69 8.7 47.7 48 -1.5 29.3 9.3 0.366
15:29 1007 29.74 836 24.69 8.8 47.8 44 -2.7 27.1 9.38 0.369
15:30 1007 29.74 836 24.69 9 48.1 43 -2.9 26.8 9.58 0.377
15:31 1006 29.71 836 24.69 8.9 48 42 -3.4 25.8 9.51 0.374
15:32 1007 29.74 836 24.69 8.7 47.6 43 -3.3 26.1 9.31 0.367
15:33 1007 29.74 836 24.69 8.6 47.4 41 -4 24.7 9.22 0.363
15:34 1007 29.74 836 24.69 8.6 47.5 39 -4.4 24 9.22 0.363
15:35 1007 29.74 836 24.69 8.6 47.6 40 -4.2 24.4 9.17 0.361
15:36 1007 29.74 836 24.69 8.6 47.5 48 -1.8 28.8 9.13 0.359
15:37 1007 29.74 836 24.69 8.7 47.6 45 -2.5 27.5 9.21 0.363
15:38 1006 29.71 836 24.69 8.6 47.4 44 -2.8 26.9 9.12 0.359
15:39 1006 29.71 836 24.69 8.3 47 46 -2.7 27.2 8.8 0.346
15:40 1006 29.71 836 24.69 8 46.4 40 -4.9 23.2 8.44 0.332
15:41 1006 29.71 836 24.69 7.6 45.7 46 -3.3 26 8.06 0.317
15:42 1006 29.71 836 24.69 7.3 45.1 41 -5 23 7.74 0.305
15:43 1006 29.71 836 24.69 7 44.6 40 -5.8 21.6 7.42 0.292
15:44 1006 29.71 836 24.69 6.8 44.2 39 -6.1 21 7.24 0.285
15:45 1006 29.71 836 24.69 6.8 44.2 44 -4.6 23.7 7.18 0.283
15:46 1006 29.71 836 24.69 6.7 44.1 46 -4.2 24.5 7.18 0.283
15:47 1006 29.71 836 24.69 6.9 44.4 41 -5.4 22.3 7.3 0.287
15:48 1006 29.71 836 24.69 7.1 44.8 47 -3.6 25.6 7.52 0.296
15:49 1006 29.71 836 24.69 7.2 45 43 -4.6 23.8 7.65 0.301
15:50 1006 29.71 836 24.69 7.3 45.1 44 -4.1 24.7 7.73 0.304
15:51 1006 29.71 836 24.69 7.4 45.3 47 -3 26.5 7.9 0.311
15:52 1006 29.71 836 24.69 7.5 45.5 44 -4.1 24.6 7.94 0.313
15:53 1006 29.71 836 24.69 7.5 45.5 45 -3.6 25.4 8 0.315
15:54 1006 29.71 836 24.69 7.7 45.8 43 -4.1 24.6 8.09 0.319
15:55 1006 29.71 836 24.69 7.7 45.8 38 -5.8 21.5 8.16 0.321
15:56 1006 29.71 836 24.69 7.7 45.9 39 -5.5 22.2 8.13 0.32
15:57 1007 29.74 836 24.69 7.7 45.8 43 -3.9 24.9 8.14 0.32
15:58 1006 29.71 836 24.69 7.7 45.8 43 -4 24.9 8.16 0.321
15:59 1006 29.71 836 24.69 7.6 45.7 43 -4.2 24.5 8.06 0.317
16:00 1007 29.74 836 24.69 7.5 45.6 41 -4.8 23.4 7.97 0.314
16:01 1007 29.74 836 24.69 7.5 45.5 41 -4.9 23.2 7.96 0.313
16:02 1007 29.74 836 24.69 7.5 45.5 43 -4.1 24.6 7.98 0.314
16:03 1007 29.74 836 24.69 7.5 45.5 41 -5 23 7.91 0.311
16:04 1007 29.74 836 24.69 7.4 45.4 41 -5 22.9 7.85 0.309
16:05 1007 29.74 836 24.69 7.3 45.1 44 -4.3 24.3 7.7 0.303
16:06 1007 29.74 836 24.69 7.1 44.8 41 -5.3 22.5 7.55 0.297
16:07 1007 29.74 836 24.69 7 44.5 42 -4.9 23.2 7.42 0.292
16:08 1007 29.74 836 24.69 6.9 44.4 42 -5.3 22.5 7.31 0.288
16:09 1007 29.74 836 24.69 6.8 44.3 39 -6.2 20.8 7.26 0.286
16:10 1007 29.74 836 24.69 6.8 44.2 45 -4.4 24 7.24 0.285
16:11 1007 29.74 836 24.69 6.7 44.1 44 -4.5 23.9 7.17 0.282
16:12 1007 29.74 836 24.69 6.7 44 43 -5 23.1 7.06 0.278
16:13 1007 29.74 836 24.69 6.6 43.8 39 -6.2 20.8 7.06 0.278
16:14 1007 29.74 836 24.69 6.7 44 40 -6 21.2 7.08 0.279
16:15 1007 29.74 836 24.69 6.6 44 42 -5.4 22.3 7.07 0.278
16:16 1007 29.74 836 24.69 6.6 43.9 42 -5.2 22.6 7.01 0.276
16:17 1007 29.74 836 24.69 6.6 43.8 42 -5.4 22.3 7.01 0.276
16:18 1007 29.74 836 24.69 6.5 43.7 41 -5.8 21.6 6.949 0.274
16:19 1007 29.74 836 24.69 6.5 43.6 42 -5.5 22 6.903 0.272
16:20 1007 29.74 836 24.69 6.5 43.6 40 -6.3 20.7 6.886 0.271
16:21 1007 29.74 836 24.69 6.4 43.6 42 -5.4 22.3 6.869 0.27
16:22 1007 29.74 836 24.69 6.3 43.4 43 -5.4 22.2 6.79 0.267
16:23 1007 29.74 836 24.69 6.2 43.2 38 -7 19.4 6.688 0.263
16:24 1007 29.74 836 24.69 6.2 43.2 42 -5.7 21.7 6.671 0.263
16:25 1007 29.74 836 24.69 6.3 43.3 41 -6 21.1 6.7 0.264
16:26 1007 29.74 836 24.69 6.3 43.3 43 -5.4 22.2 6.722 0.265
16:27 1007 29.74 836 24.69 6.3 43.4 41 -5.8 21.5 6.739 0.265
16:28 1007 29.74 836 24.69 6.3 43.4 44 -5.1 22.8 6.751 0.266
16:29 1007 29.74 836 24.69 6.3 43.3 41 -6.1 21 6.666 0.262
16:30 1007 29.74 836 24.69 6.2 43.2 41 -5.9 21.3 6.632 0.261
16:31 1007 29.74 836 24.69 6.1 43.1 43 -5.5 22.1 6.57 0.259
16:32 1007 29.74 836 24.69 6.1 43 44 -5.2 22.6 6.536 0.257
16:33 1007 29.74 836 24.69 6 42.8 46 -4.8 23.4 6.429 0.253
16:34 1007 29.74 836 24.69 5.8 42.5 45 -5.1 22.9 6.328 0.249
16:35 1007 29.74 836 24.69 5.8 42.5 44 -5.6 21.9 6.243 0.246
16:36 1007 29.74 836 24.69 5.8 42.5 47 -4.5 23.9 6.272 0.247
16:37 1007 29.74 836 24.69 5.8 42.4 44 -5.5 22.1 6.256 0.246
16:38 1007 29.74 836 24.69 5.8 42.5 45 -5.2 22.7 6.278 0.247
16:39 1007 29.74 836 24.69 6 42.9 40 -6.5 20.3 6.483 0.255
16:40 1007 29.74 836 24.69 6.1 43 40 -6.4 20.4 6.562 0.258
16:41 1007 29.74 836 24.69 6.2 43.2 42 -5.8 21.5 6.658 0.262
16:42 1007 29.74 836 24.69 6.3 43.4 46 -4.6 23.8 6.755 0.266
16:43 1007 29.74 836 24.69 6.4 43.5 43 -5.3 22.4 6.829 0.269
16:44 1007 29.74 836 24.69 6.5 43.7 39 -6.5 20.2 6.953 0.274
16:45 1007 29.74 836 24.69 6.6 43.8 41 -5.8 21.5 6.976 0.275
16:46 1007 29.74 836 24.69 6.5 43.8 40 -6 21.2 6.993 0.275
16:47 1007 29.74 836 24.69 6.5 43.8 40 -6.2 20.8 6.971 0.274
16:48 1007 29.74 836 24.69 6.6 43.9 41 -5.7 21.7 7.04 0.277
16:49 1007 29.74 836 24.69 6.6 43.9 44 -4.9 23.2 7.07 0.278
16:50 1007 29.74 836 24.69 6.6 43.8 45 -4.6 23.8 7.03 0.277
16:51 1007 29.74 836 24.69 6.5 43.6 40 -6 21.1 6.926 0.273
16:52 1007 29.74 836 24.69 6.4 43.5 41 -6 21.3 6.842 0.269
16:53 1007 29.74 836 24.69 6.2 43.2 44 -5 23.1 6.7 0.264
16:54 1007 29.74 836 24.69 6.2 43.1 44 -5.2 22.6 6.599 0.26
16:55 1007 29.74 836 24.69 6.2 43.1 43 -5.4 22.3 6.649 0.262
16:56 1007 29.74 836 24.69 6.3 43.3 41 -5.9 21.4 6.723 0.265
16:57 1007 29.74 836 24.69 6.3 43.3 40 -6.3 20.6 6.78 0.267
16:58 1007 29.74 836 24.69 6.4 43.4 41 -6.1 21 6.786 0.267
16:59 1007 29.74 836 24.69 6.4 43.6 42 -5.4 22.3 6.865 0.27
17:00 1007 29.74 836 24.69 6.5 43.6 39 -6.6 20.2 6.916 0.272
17:01 1007 29.74 836 24.69 6.5 43.7 38 -6.9 19.6 6.933 0.273
17:02 1007 29.74 836 24.69 6.5 43.8 39 -6.6 20.2 6.95 0.274
17:03 1007 29.74 836 24.69 6.6 43.8 39 -6.2 20.8 6.995 0.275
17:04 1007 29.74 836 24.69 6.5 43.7 39 -6.6 20.2 6.922 0.273
17:05 1007 29.74 836 24.69 6.5 43.6 40 -6.1 21.1 6.905 0.272
17:06 1007 29.74 836 24.69 6.5 43.7 41 -5.8 21.6 6.933 0.273
17:07 1007 29.74 836 24.69 6.5 43.7 43 -5.2 22.7 6.961 0.274
17:08 1007 29.74 836 24.69 6.5 43.7 42 -5.5 22.1 6.984 0.275
17:09 1007 29.74 836 24.69 6.5 43.8 39 -6.3 20.7 7.01 0.276
17:10 1007 29.74 836 24.69 6.6 43.9 41 -5.8 21.5 7.04 0.277
17:11 1007 29.74 836 24.69 6.6 43.8 44 -5 23.1 6.984 0.275
17:12 1007 29.74 836 24.69 6.6 43.8 37 -7 19.5 6.99 0.275
17:13 1007 29.74 836 24.69 6.6 43.8 34 -8 17.5 6.984 0.275
17:14 1007 29.74 836 24.69 6.6 43.8 35 -7.7 18.2 6.99 0.275
17:15 1007 29.74 836 24.69 6.6 43.9 37 -7.2 19 7.04 0.277
17:16 1007 29.74 837 24.72 6.6 43.9 37 -7.1 19.3 7.04 0.277
17:17 1007 29.74 837 24.72 6.6 43.9 42 -5.3 22.4 7.09 0.279
17:18 1007 29.74 837 24.72 6.6 43.9 39 -6.4 20.6 7.05 0.278
17:19 1007 29.74 837 24.72 6.5 43.7 39 -6.6 20.2 6.928 0.273
17:20 1007 29.74 837 24.72 6.3 43.4 41 -6.1 20.9 6.758 0.266
17:21 1007 29.74 837 24.72 6.1 43 46 -4.8 23.4 6.566 0.259
17:22 1007 29.74 837 24.72 5.9 42.7 41 -6.2 20.9 6.373 0.251
17:23 1008 29.77 837 24.72 5.9 42.6 43 -5.7 21.7 6.351 0.25
17:24 1008 29.77 837 24.72 5.8 42.5 45 -5.2 22.7 6.249 0.246
17:25 1008 29.77 837 24.72 5.8 42.5 45 -5.2 22.6 6.232 0.245
17:26 1008 29.77 837 24.72 5.8 42.4 41 -6.3 20.6 6.226 0.245
17:27 1008 29.77 837 24.72 5.9 42.6 45 -5.1 22.9 6.345 0.25
17:28 1008 29.77 837 24.72 6 42.8 45 -5 22.9 6.441 0.254
17:29 1008 29.77 837 24.72 6.1 43 48 -4.2 24.4 6.555 0.258
17:30 1008 29.77 837 24.72 6.2 43.1 41 -6 21.3 6.617 0.261
17:31 1008 29.77 837 24.72 6.3 43.3 41 -6 21.2 6.645 0.262
17:32 1008 29.77 837 24.72 6.3 43.3 36 -7.8 17.9 6.719 0.265
17:33 1008 29.77 837 24.72 6.3 43.4 37 -7.4 18.8 6.753 0.266
17:34 1008 29.77 837 24.72 6.3 43.3 39 -6.7 19.9 6.73 0.265
17:35 1008 29.77 837 24.72 6.2 43.2 38 -7.2 19 6.639 0.261
17:36 1008 29.77 837 24.72 6.1 43 38 -7.2 19.1 6.543 0.258
17:37 1008 29.77 837 24.72 6 42.9 42 -5.8 21.6 6.441 0.254
17:38 1008 29.77 837 24.72 5.9 42.5 42 -6.2 20.9 6.311 0.248
17:39 1008 29.77 837 24.72 5.8 42.4 41 -6.4 20.4 6.238 0.246
17:40 1008 29.77 837 24.72 5.7 42.2 46 -5 22.9 6.119 0.241
17:41 1008 29.77 837 24.72 5.6 42.1 43 -6 21.3 6.062 0.239
17:42 1008 29.77 837 24.72 5.6 42.1 41 -6.6 20.2 6.051 0.238
17:43 1008 29.77 837 24.72 5.7 42.3 41 -6.4 20.5 6.142 0.242
17:44 1008 29.77 837 24.72 5.8 42.4 44 -5.5 22.2 6.215 0.245
17:45 1008 29.77 837 24.72 5.8 42.4 45 -5.3 22.5 6.226 0.245
17:46 1008 29.77 837 24.72 5.8 42.4 40 -6.9 19.5 6.176 0.243
17:47 1008 29.77 837 24.72 5.7 42.3 44 -5.7 21.8 6.17 0.243
17:48 1008 29.77 837 24.72 5.8 42.4 43 -5.8 21.6 6.176 0.243
17:49 1008 29.77 837 24.72 5.7 42.3 46 -5 23.1 6.142 0.242
17:50 1008 29.77 837 24.72 5.5 41.8 47 -5 22.9 5.932 0.234
17:51 1008 29.77 837 24.72 5.3 41.6 49 -4.6 23.8 5.785 0.228
17:52 1008 29.77 837 24.72 5.1 41.2 51 -4.2 24.5 5.531 0.218
17:53 1008 29.77 837 24.72 4.8 40.6 53 -3.9 25 5.225 0.206
17:54 1008 29.77 837 24.72 4.5 40.2 53 -4.1 24.5 4.988 0.196
17:55 1008 29.77 837 24.72 4.4 39.9 54 -4 24.7 4.79 0.189
17:56 1008 29.77 837 24.72 4.3 39.7 54 -4.1 24.5 4.722 0.186
17:57 1008 29.77 838 24.75 4.2 39.6 54 -4.4 24.1 4.648 0.183
17:58 1008 29.77 838 24.75 4.2 39.5 57 -3.6 25.5 4.603 0.181
17:59 1008 29.77 838 24.75 4.1 39.3 56 -4 24.9 4.495 0.177
18:00 1008 29.77 838 24.75 4 39.2 57 -3.8 25.1 4.427 0.174
18:01 1008 29.77 838 24.75 3.9 39 57 -3.9 25 4.314 0.17
18:02 1009 29.8 838 24.75 3.8 38.9 59 -3.5 25.8 4.241 0.167
18:03 1009 29.8 838 24.75 3.8 38.8 59 -3.4 25.9 4.162 0.164
18:04 1008 29.77 838 24.75 3.5 38.4 62 -3.1 26.4 3.935 0.155
18:05 1009 29.8 838 24.75 3.3 37.9 64 -2.9 26.8 3.732 0.147
18:06 1009 29.8 838 24.75 3.1 37.6 64 -3.1 26.5 3.579 0.141
18:07 1009 29.8 838 24.75 3 37.5 65 -2.8 27 3.449 0.136
18:08 1009 29.8 838 24.75 2.9 37.3 66 -2.7 27.1 3.364 0.132
18:09 1009 29.8 838 24.75 2.9 37.1 69 -2.3 27.9 3.279 0.129
18:10 1009 29.8 838 24.75 2.8 37.1 68 -2.4 27.7 3.258 0.128
18:11 1009 29.8 838 24.75 2.8 37 70 -2.1 28.3 3.241 0.128
18:12 1009 29.8 838 24.75 2.6 36.7 70 -2.3 27.8 3.065 0.121
18:13 1009 29.8 838 24.75 2.4 36.4 71 -2.4 27.7 2.874 0.113
18:14 1009 29.8 838 24.75 2.2 36 73 -2.2 28.1 2.716 0.107
18:15 1009 29.8 838 24.75 2 35.7 73 -2.3 27.9 2.518 0.099
18:16 1009 29.8 838 24.75 1.9 35.5 74 -2.2 28 2.349 0.092
18:17 1009 29.8 838 24.75 1.8 35.2 74 -2.3 27.9 2.247 0.088
18:18 1009 29.8 839 24.78 1.7 35.1 74 -2.4 27.8 2.185 0.086
18:19 1009 29.8 838 24.75 1.7 35.1 73 -2.6 27.2 2.174 0.086
18:20 1009 29.8 838 24.75 1.7 35.1 71 -3 26.5 2.197 0.086
18:21 1009 29.8 838 24.75 1.8 35.3 72 -2.6 27.3 2.237 0.088
18:22 1009 29.8 838 24.75 1.9 35.3 71 -2.8 26.9 2.277 0.09
18:23 1009 29.8 838 24.75 1.9 35.3 70 -3 26.6 2.299 0.091
18:24 1009 29.8 838 24.75 1.9 35.4 70 -3.1 26.4 2.316 0.091
18:25 1009 29.8 839 24.78 1.9 35.4 70 -3.1 26.5 2.323 0.091
18:26 1009 29.8 839 24.78 1.9 35.5 68 -3.4 25.8 2.373 0.093
18:27 1009 29.8 839 24.78 2 35.6 69 -3.1 26.4 2.391 0.094
18:28 1009 29.8 839 24.78 1.9 35.4 70 -3 26.5 2.341 0.092
18:29 1009 29.8 839 24.78 1.8 35.3 70 -3 26.6 2.296 0.09
18:30 1009 29.8 838 24.75 1.9 35.3 69 -3.2 26.3 2.251 0.089
18:31 1009 29.8 839 24.78 1.8 35.3 70 -3.1 26.5 2.264 0.089
18:32 1009 29.8 838 24.75 1.8 35.2 70 -3.1 26.5 2.218 0.087
18:33 1009 29.8 839 24.78 1.8 35.2 71 -2.9 26.8 2.202 0.087
18:34 1010 29.83 839 24.78 1.7 35.1 73 -2.7 27.2 2.095 0.082
18:35 1010 29.83 839 24.78 1.6 35 71 -3.1 26.4 2.095 0.082
18:36 1010 29.83 839 24.78 1.6 35 72 -2.8 27 2.118 0.083
18:37 1010 29.83 839 24.78 1.6 34.9 73 -2.8 27 2.051 0.081
18:38 1010 29.83 839 24.78 1.6 34.9 73 -2.7 27.2 2.045 0.081
18:39 1010 29.83 839 24.78 1.6 34.8 73 -2.8 27 1.972 0.078
18:40 1010 29.83 839 24.78 1.6 34.8 73 -2.8 26.9 1.989 0.078
18:41 1010 29.83 839 24.78 1.6 34.8 73 -2.8 27 2 0.079
18:42 1010 29.83 839 24.78 1.5 34.8 74 -2.6 27.3 1.973 0.078
18:43 1010 29.83 839 24.78 1.5 34.7 74 -2.7 27.2 1.916 0.075
18:44 1010 29.83 840 24.81 1.5 34.6 74 -2.7 27.1 1.888 0.074
18:45 1010 29.83 840 24.81 1.5 34.7 72 -3 26.7 1.933 0.076
18:46 1010 29.83 839 24.78 1.5 34.6 78 -2 28.4 1.86 0.073
18:47 1011 29.85 840 24.81 1.1 34.1 82 -1.7 29 1.617 0.064
18:48 1010 29.83 840 24.81 0.7 33.3 85 -1.5 29.3 1.187 0.047
18:49 1011 29.85 840 24.81 0.4 32.7 88 -1.4 29.4 0.819 0.032
18:50 1011 29.85 840 24.81 0.2 32.3 89 -1.4 29.5 0.604 0.024
18:51 1011 29.85 840 24.81 -0 31.9 90 -1.5 29.3 0.418 0.016
18:52 1011 29.85 840 24.81 -0.1 31.8 91 -1.4 29.4 0.344 0.014
18:53 1011 29.85 840 24.81 -0.2 31.6 92 -1.4 29.4 0.27 0.011
18:54 1011 29.85 840 24.81 -0.3 31.5 92 -1.4 29.5 0.157 0.006
18:55 1011 29.85 840 24.81 -0.4 31.4 93 -1.4 29.5 0.095 0.004
18:56 1011 29.85 840 24.81 -0.4 31.3 93 -1.4 29.5 0.056 0.002
18:57 1011 29.85 840 24.81 -0.4 31.2 94 -1.3 29.6 -0.006 -0
18:58 1011 29.85 840 24.81 -0.5 31.1 94 -1.3 29.7 -0.012 -0
18:59 1011 29.85 840 24.81 -0.5 31 95 -1.3 29.7 -0.057 -0.002
19:00 1011 29.85 840 24.81 -0.6 31 95 -1.2 29.8 -0.078 -0.003
19:01 1011 29.85 840 24.81 -0.6 30.9 96 -1.2 29.8 -0.124 -0.005
19:02 1011 29.85 840 24.81 -0.7 30.8 96 -1.2 29.8 -0.186 -0.007
19:03 1011 29.85 840 24.81 -0.7 30.8 96 -1.2 29.8 -0.23 -0.009
19:04 1011 29.85 840 24.81 -0.7 30.7 97 -1.2 29.8 -0.309 -0.012
19:05 1011 29.85 840 24.81 -0.8 30.6 97 -1.2 29.8 -0.32 -0.013
19:06 1011 29.85 840 24.81 -0.8 30.6 97 -1.2 29.8 -0.359 -0.014
19:07 1011 29.85 840 24.81 -0.8 30.5 97 -1.2 29.8 -0.365 -0.014
19:08 1011 29.85 840 24.81 -0.8 30.5 98 -1.2 29.9 -0.365 -0.014
19:09 1011 29.85 840 24.81 -0.8 30.5 98 -1.2 29.9 -0.426 -0.017
19:10 1011 29.85 840 24.81 -0.9 30.5 98 -1.2 29.8 -0.409 -0.016
19:11 1011 29.85 840 24.81 -0.9 30.4 98 -1.2 29.8 -0.431 -0.017
19:12 1011 29.85 840 24.81 -0.9 30.4 98 -1.2 29.8 -0.447 -0.018
19:13 1011 29.85 840 24.81 -0.9 30.4 98 -1.2 29.8 -0.453 -0.018
19:14 1011 29.85 840 24.81 -0.9 30.4 98 -1.2 29.8 -0.486 -0.019
19:15 1011 29.85 841 24.83 -0.9 30.4 98 -1.2 29.8 -0.513 -0.02
19:16 1011 29.85 841 24.83 -0.9 30.4 98 -1.2 29.8 -0.513 -0.02
19:17 1011 29.85 841 24.83 -1 30.3 98 -1.3 29.7 -0.586 -0.023
19:18 1011 29.85 841 24.83 -0.9 30.3 98 -1.3 29.7 -0.518 -0.02
19:19 1012 29.88 841 24.83 -0.9 30.3 97 -1.3 29.7 -0.535 -0.021
19:20 1012 29.88 841 24.83 -0.9 30.3 97 -1.3 29.6 -0.551 -0.022
19:21 1012 29.88 841 24.83 -1 30.3 97 -1.4 29.6 -0.557 -0.022
19:22 1012 29.88 841 24.83 -1 30.3 97 -1.4 29.5 -0.619 -0.024
19:23 1012 29.88 841 24.83 -1 30.2 97 -1.5 29.4 -0.584 -0.023
19:24 1012 29.88 841 24.83 -1 30.2 97 -1.5 29.4 -0.595 -0.023
19:25 1012 29.88 841 24.83 -1 30.3 97 -1.4 29.4 -0.561 -0.022
19:26 1012 29.88 841 24.83 -1 30.2 97 -1.5 29.4 -0.589 -0.023
19:27 1012 29.88 841 24.83 -1 30.2 97 -1.5 29.4 -0.612 -0.024
19:28 1012 29.88 841 24.83 -1 30.2 96 -1.5 29.2 -0.623 -0.025
19:29 1012 29.88 841 24.83 -1 30.2 97 -1.5 29.3 -0.623 -0.025
19:30 1012 29.88 841 24.83 -1 30.2 97 -1.5 29.4 -0.617 -0.024
19:31 1012 29.88 841 24.83 -1 30.2 97 -1.5 29.3 -0.634 -0.025
19:32 1012 29.88 841 24.83 -1 30.2 97 -1.4 29.4 -0.65 -0.026
19:33 1012 29.88 841 24.83 -1 30.2 97 -1.5 29.4 -0.639 -0.025
19:34 1012 29.88 841 24.83 -1 30.2 97 -1.5 29.4 -0.605 -0.024
19:35 1012 29.88 841 24.83 -1 30.2 97 -1.4 29.4 -0.599 -0.024
19:36 1012 29.88 841 24.83 -1 30.2 97 -1.4 29.4 -0.599 -0.024
19:37 1012 29.88 841 24.83 -1 30.2 97 -1.4 29.4 -0.616 -0.024
19:38 1012 29.88 841 24.83 -1 30.2 97 -1.4 29.6 -0.599 -0.024
19:39 1012 29.88 841 24.83 -1 30.2 97 -1.4 29.5 -0.576 -0.023
19:40 1012 29.88 841 24.83 -1 30.2 97 -1.4 29.5 -0.599 -0.024
19:41 1012 29.88 841 24.83 -1 30.2 97 -1.4 29.5 -0.637 -0.025
19:42 1012 29.88 841 24.83 -1 30.2 97 -1.4 29.5 -0.637 -0.025
19:43 1012 29.88 841 24.83 -1.1 30.1 97 -1.4 29.4 -0.654 -0.026
19:44 1012 29.88 841 24.83 -1 30.2 97 -1.4 29.4 -0.681 -0.027
19:45 1012 29.88 841 24.83 -1 30.1 97 -1.5 29.4 -0.675 -0.027
19:46 1012 29.88 841 24.83 -1 30.1 97 -1.5 29.4 -0.67 -0.026
19:47 1012 29.88 841 24.83 -1 30.1 97 -1.4 29.4 -0.64 -0.025
19:48 1012 29.88 841 24.83 -1 30.1 97 -1.4 29.4 -0.657 -0.026
19:49 1012 29.88 841 24.83 -1.1 30.1 97 -1.4 29.4 -0.669 -0.026
19:50 1012 29.88 841 24.83 -1.1 30 97 -1.5 29.3 -0.679 -0.027
19:51 1012 29.88 841 24.83 -1.1 30 97 -1.5 29.4 -0.662 -0.026
19:52 1012 29.88 841 24.83 -1.1 30 97 -1.5 29.3 -0.696 -0.027
19:53 1012 29.88 841 24.83 -1.1 29.9 97 -1.5 29.3 -0.723 -0.028
19:54 1012 29.88 841 24.83 -1.1 30 97 -1.5 29.3 -0.796 -0.031
19:55 1012 29.88 842 24.86 -1.2 29.8 97 -1.6 29.2 -0.835 -0.033
19:56 1012 29.88 842 24.86 -1.2 29.8 97 -1.6 29.2 -0.851 -0.034
19:57 1012 29.88 842 24.86 -1.3 29.7 97 -1.6 29 -0.885 -0.035
19:58 1012 29.88 842 24.86 -1.3 29.6 98 -1.6 29 -0.902 -0.036
19:59 1012 29.88 842 24.86 -1.4 29.5 98 -1.7 29 -0.946 -0.037
20:00 1013 29.91 842 24.86 -1.3 29.6 98 -1.6 29 -0.952 -0.037
20:01 1013 29.91 842 24.86 -1.3 29.6 98 -1.6 29.1 -0.906 -0.036
20:02 1013 29.91 842 24.86 -1.4 29.5 98 -1.6 29.1 -0.979 -0.039
20:03 1013 29.91 842 24.86 -1.4 29.5 98 -1.7 29 -0.979 -0.039
20:04 1013 29.91 842 24.86 -1.4 29.5 98 -1.6 29.1 -0.962 -0.038
20:05 1013 29.91 842 24.86 -1.4 29.5 99 -1.6 29.2 -0.899 -0.035
20:06 1013 29.91 842 24.86 -1.4 29.5 99 -1.6 29.1 -0.922 -0.036
20:07 1013 29.91 842 24.86 -1.4 29.5 99 -1.6 29.2 -0.95 -0.037
20:08 1013 29.91 842 24.86 -1.4 29.5 99 -1.6 29.2 -0.949 -0.037
20:09 1013 29.91 842 24.86 -1.4 29.5 99 -1.6 29.2 -0.995 -0.039
20:10 1013 29.91 842 24.86 -1.4 29.5 99 -1.6 29.2 -0.983 -0.039
20:11 1013 29.91 842 24.86 -1.4 29.5 99 -1.6 29.2 -0.972 -0.038
20:12 1013 29.91 842 24.86 -1.4 29.5 99 -1.6 29.1 -1 -0.039
20:13 1013 29.91 842 24.86 -1.4 29.5 99 -1.5 29.2 -0.983 -0.039
20:14 1013 29.91 842 24.86 -1.4 29.5 99 -1.6 29.2 -0.971 -0.038
20:15 1013 29.91 842 24.86 -1.4 29.5 99 -1.5 29.2 -0.966 -0.038
20:16 1013 29.91 842 24.86 -1.3 29.6 99 -1.5 29.3 -0.971 -0.038
20:17 1013 29.91 842 24.86 -1.3 29.6 99 -1.5 29.3 -0.931 -0.037
20:18 1013 29.91 842 24.86 -1.3 29.6 99 -1.5 29.3 -0.897 -0.035
20:19 1013 29.91 842 24.86 -1.3 29.7 99 -1.5 29.3 -0.925 -0.036
20:20 1013 29.91 842 24.86 -1.3 29.7 99 -1.5 29.3 -0.908 -0.036
20:21 1013 29.91 842 24.86 -1.3 29.7 98 -1.5 29.3 -0.954 -0.038
20:22 1013 29.91 842 24.86 -1.3 29.6 99 -1.5 29.3 -0.897 -0.035
20:23 1013 29.91 842 24.86 -1.3 29.6 99 -1.5 29.3 -0.948 -0.037
20:24 1013 29.91 842 24.86 -1.3 29.6 99 -1.5 29.2 -0.936 -0.037
20:25 1013 29.91 842 24.86 -1.3 29.6 99 -1.5 29.2 -0.948 -0.037
20:26 1013 29.91 842 24.86 -1.4 29.6 99 -1.6 29.2 -0.931 -0.037
20:27 1013 29.91 842 24.86 -1.4 29.6 99 -1.5 29.2 -0.936 -0.037
20:28 1013 29.91 842 24.86 -1.3 29.6 99 -1.5 29.3 -0.913 -0.036
20:29 1013 29.91 842 24.86 -1.3 29.6 99 -1.5 29.3 -0.913 -0.036
20:30 1013 29.91 842 24.86 -1.3 29.7 99 -1.5 29.4 -0.879 -0.035
20:31 1013 29.91 842 24.86 -1.3 29.7 99 -1.5 29.4 -0.817 -0.032
20:32 1013 29.91 842 24.86 -1.3 29.7 98 -1.5 29.3 -0.834 -0.033
20:33 1013 29.91 842 24.86 -1.2 29.8 98 -1.4 29.5 -0.8 -0.031
20:34 1013 29.91 842 24.86 -1.2 29.9 98 -1.4 29.5 -0.755 -0.03
20:35 1013 29.91 842 24.86 -1.1 29.9 98 -1.4 29.5 -0.743 -0.029
20:36 1013 29.91 842 24.86 -1.1 30 98 -1.4 29.4 -0.726 -0.029
20:37 1013 29.91 842 24.86 -1.1 30.1 98 -1.4 29.5 -0.675 -0.027
20:38 1013 29.91 842 24.86 -1.1 30.1 97 -1.4 29.4 -0.698 -0.027
20:39 1013 29.91 842 24.86 -1.1 30.1 97 -1.4 29.4 -0.709 -0.028
20:40 1013 29.91 842 24.86 -1.1 30 97 -1.5 29.3 -0.704 -0.028
20:41 1013 29.91 842 24.86 -1.1 30 97 -1.5 29.3 -0.704 -0.028
20:42 1013 29.91 842 24.86 -1.1 30.1 96 -1.6 29.1 -0.681 -0.027
20:43 1013 29.91 842 24.86 -1 30.3 94 -1.8 28.8 -0.636 -0.025
20:44 1013 29.91 842 24.86 -0.9 30.4 92 -2.1 28.3 -0.568 -0.022
20:45 1013 29.91 842 24.86 -0.7 30.7 91 -2.1 28.3 -0.437 -0.017
20:46 1013 29.91 843 24.89 -0.7 30.8 90 -2.1 28.3 -0.381 -0.015
20:47 1013 29.91 843 24.89 -0.7 30.8 89 -2.3 27.9 -0.33 -0.013
20:48 1013 29.91 843 24.89 -0.6 30.9 89 -2.2 28 -0.301 -0.012
20:49 1013 29.91 843 24.89 -0.6 31 89 -2.1 28.2 -0.267 -0.011
20:50 1013 29.91 843 24.89 -0.6 30.9 88 -2.4 27.7 -0.284 -0.011
20:51 1014 29.94 843 24.89 -0.5 31 87 -2.5 27.6 -0.267 -0.011
20:52 1014 29.94 843 24.89 -0.5 31.1 86 -2.5 27.5 -0.267 -0.011
20:53 1014 29.94 843 24.89 -0.5 31.1 85 -2.6 27.3 -0.143 -0.006
20:54 1014 29.94 843 24.89 -0.5 31.1 86 -2.6 27.4 -0.148 -0.006
20:55 1014 29.94 843 24.89 -0.5 31.1 86 -2.6 27.3 -0.143 -0.006
20:56 1014 29.94 843 24.89 -0.5 31 86 -2.6 27.4 -0.16 -0.006
20:57 1014 29.94 843 24.89 -0.6 30.9 87 -2.5 27.5 -0.216 -0.009
20:58 1014 29.94 843 24.89 -0.7 30.7 88 -2.4 27.6 -0.324 -0.013
20:59 1014 29.94 843 24.89 -0.8 30.6 89 -2.4 27.7 -0.398 -0.016
21:00 1014 29.94 843 24.89 -0.9 30.4 90 -2.4 27.8 -0.46 -0.018
21:01 1014 29.94 843 24.89 -1 30.3 90 -2.4 27.8 -0.534 -0.021
21:02 1014 29.94 843 24.89 -1 30.2 91 -2.2 28 -0.568 -0.022
21:03 1014 29.94 843 24.89 -1.1 30 92 -2.3 27.9 -0.692 -0.027
21:04 1014 29.94 843 24.89 -1.2 29.9 93 -2.2 28 -0.749 -0.029
21:05 1014 29.94 843 24.89 -1.2 29.8 93 -2.2 28 -0.788 -0.031
21:06 1014 29.94 843 24.89 -1.3 29.7 94 -2.1 28.1 -0.907 -0.036
21:07 1014 29.94 843 24.89 -1.4 29.5 95 -2.1 28.2 -0.941 -0.037
21:08 1014 29.94 843 24.89 -1.5 29.4 95 -2.1 28.2 -1.015 -0.04
21:09 1014 29.94 843 24.89 -1.5 29.2 96 -2.1 28.2 -1.066 -0.042
21:10 1014 29.94 843 24.89 -1.6 29.2 96 -2.1 28.1 -1.128 -0.044
21:11 1014 29.94 843 24.89 -1.6 29.2 96 -2.1 28.1 -1.162 -0.046
21:12 1014 29.94 843 24.89 -1.6 29.1 96 -2.2 28 -1.168 -0.046
21:13 1014 29.94 843 24.89 -1.6 29.1 95 -2.3 27.9 -1.219 -0.048
21:14 1014 29.94 843 24.89 -1.6 29.1 95 -2.2 28 -1.196 -0.047
21:15 1014 29.94 843 24.89 -1.6 29.1 95 -2.2 28 -1.2 -0.047
21:16 1014 29.94 843 24.89 -1.6 29.1 96 -2.2 28 -1.2 -0.047
21:17 1014 29.94 843 24.89 -1.6 29.1 96 -2.2 28.1 -1.223 -0.048
21:18 1014 29.94 843 24.89 -1.6 29.1 96 -2.2 28 -1.216 -0.048
21:19 1014 29.94 843 24.89 -1.6 29.1 96 -2.2 28.1 -1.211 -0.048
21:20 1014 29.94 843 24.89 -1.6 29.1 96 -2.1 28.1 -1.262 -0.05
21:21 1014 29.94 843 24.89 -1.6 29.1 96 -2.2 28.1 -1.255 -0.049
21:22 1014 29.94 843 24.89 -1.6 29.1 96 -2.1 28.2 -1.25 -0.049
21:23 1014 29.94 843 24.89 -1.6 29 97 -2.1 28.2 -1.216 -0.048
21:24 1014 29.94 843 24.89 -1.7 29 97 -2.1 28.1 -1.267 -0.05
21:25 1014 29.94 843 24.89 -1.7 29 97 -2.1 28.2 -1.301 -0.051
21:26 1014 29.94 843 24.89 -1.7 29 97 -2.2 28.1 -1.25 -0.049
21:27 1014 29.94 843 24.89 -1.7 29 96 -2.2 28.1 -1.261 -0.05
21:28 1014 29.94 843 24.89 -1.7 29 97 -2.1 28.2 -1.249 -0.049
21:29 1014 29.94 843 24.89 -1.6 29.1 97 -2.1 28.3 -1.187 -0.047
21:30 1014 29.94 843 24.89 -1.6 29.1 97 -2 28.4 -1.152 -0.045
21:31 1014 29.94 843 24.89 -1.6 29.1 97 -2 28.4 -1.192 -0.047
21:32 1014 29.94 843 24.89 -1.6 29.2 97 -2 28.5 -1.203 -0.047
21:33 1014 29.94 843 24.89 -1.6 29.1 97 -2 28.4 -1.22 -0.048
21:34 1014 29.94 843 24.89 -1.6 29.1 97 -2 28.4 -1.22 -0.048
21:35 1014 29.94 843 24.89 -1.7 29 97 -2.1 28.3 -1.231 -0.048
21:36 1014 29.94 843 24.89 -1.7 29 97 -2.1 28.2 -1.265 -0.05
21:37 1014 29.94 843 24.89 -1.6 29.2 97 -2.1 28.3 -1.242 -0.049
21:38 1014 29.94 843 24.89 -1.6 29.1 97 -2.1 28.3 -1.14 -0.045
21:39 1014 29.94 843 24.89 -1.6 29.2 96 -2.1 28.3 -1.157 -0.046
21:40 1014 29.94 843 24.89 -1.5 29.3 96 -2 28.3 -1.117 -0.044
21:41 1014 29.94 843 24.89 -1.5 29.3 96 -2 28.3 -1.094 -0.043
21:42 1014 29.94 843 24.89 -1.5 29.3 96 -2 28.4 -1.089 -0.043
21:43 1014 29.94 843 24.89 -1.5 29.2 96 -2.1 28.2 -1.094 -0.043
21:44 1014 29.94 843 24.89 -1.6 29.2 96 -2.1 28.2 -1.156 -0.046
21:45 1014 29.94 843 24.89 -1.6 29.2 96 -2.1 28.2 -1.151 -0.045
21:46 1014 29.94 843 24.89 -1.6 29.2 96 -2.1 28.1 -1.202 -0.047
21:47 1014 29.94 843 24.89 -1.6 29.1 96 -2.1 28.1 -1.202 -0.047
21:48 1014 29.94 843 24.89 -1.6 29.2 96 -2.1 28.2 -1.19 -0.047
21:49 1014 29.94 843 24.89 -1.6 29.2 96 -2.2 28.1 -1.19 -0.047
21:50 1014 29.94 843 24.89 -1.5 29.2 96 -2.2 28.1 -1.207 -0.048
21:51 1014 29.94 843 24.89 -1.5 29.3 95 -2.2 28 -1.15 -0.045
21:52 1014 29.94 843 24.89 -1.5 29.3 93 -2.5 27.6 -1.088 -0.043
21:53 1014 29.94 843 24.89 -1.3 29.7 90 -2.7 27.2 -0.98 -0.039
21:54 1014 29.94 843 24.89 -1.1 29.9 87 -3 26.5 -0.85 -0.033
21:55 1014 29.94 843 24.89 -1 30.3 85 -3.1 26.4 -0.686 -0.027
21:56 1014 29.94 843 24.89 -0.9 30.5 84 -3.2 26.2 -0.561 -0.022
21:57 1014 29.94 843 24.89 -0.7 30.7 85 -2.9 26.7 -0.448 -0.018
21:58 1014 29.94 843 24.89 -0.8 30.6 88 -2.6 27.3 -0.487 -0.019
21:59 1014 29.94 843 24.89 -1 30.3 87 -2.8 26.9 -0.601 -0.024
22:00 1014 29.94 843 24.89 -1 30.1 87 -2.9 26.8 -0.606 -0.024
22:01 1014 29.94 843 24.89 -1 30.2 87 -2.9 26.7 -0.64 -0.025
22:02 1014 29.94 843 24.89 -1 30.2 86 -3 26.5 -0.673 -0.026
22:03 1013 29.91 843 24.89 -1 30.1 85 -3.3 26.1 -0.718 -0.028
22:04 1013 29.91 843 24.89 -1 30.2 84 -3.3 26.1 -0.656 -0.026
22:05 1013 29.91 843 24.89 -0.9 30.4 85 -3.2 26.3 -0.576 -0.023
22:06 1013 29.91 843 24.89 -0.9 30.4 83 -3.4 25.9 -0.547 -0.022
22:07 1013 29.91 843 24.89 -0.9 30.4 84 -3.3 26 -0.524 -0.021
22:08 1013 29.91 843 24.89 -0.9 30.4 83 -3.5 25.7 -0.518 -0.02
22:09 1013 29.91 843 24.89 -0.9 30.4 83 -3.4 25.9 -0.552 -0.022
22:10 1013 29.91 843 24.89 -0.9 30.4 83 -3.5 25.7 -0.54 -0.021
22:11 1013 29.91 843 24.89 -0.9 30.3 83 -3.5 25.7 -0.568 -0.022
22:12 1013 29.91 843 24.89 -1 30.3 82 -3.7 25.4 -0.574 -0.023
22:13 1013 29.91 843 24.89 -1 30.1 83 -3.6 25.6 -0.647 -0.025
22:14 1013 29.91 843 24.89 -1 30.1 80 -4.1 24.6 -0.692 -0.027
22:15 1013 29.91 843 24.89 -0.9 30.3 80 -4 24.8 -0.573 -0.023
22:16 1013 29.91 843 24.89 -0.9 30.4 80 -4 24.9 -0.528 -0.021
22:17 1013 29.91 843 24.89 -1 30.3 80 -3.9 24.9 -0.556 -0.022
22:18 1013 29.91 843 24.89 -1 30.2 80 -3.9 24.9 -0.562 -0.022
22:19 1013 29.91 843 24.89 -1 30.1 80 -4.1 24.6 -0.629 -0.025
22:20 1013 29.91 843 24.89 -1.1 30.1 78 -4.4 24 -0.686 -0.027
22:21 1013 29.91 843 24.89 -1 30.2 77 -4.6 23.8 -0.68 -0.027
22:22 1013 29.91 843 24.89 -0.9 30.3 75 -4.9 23.2 -0.578 -0.023
22:23 1013 29.91 843 24.89 -0.8 30.6 75 -4.6 23.7 -0.487 -0.019
22:24 1013 29.91 843 24.89 -0.8 30.6 75 -4.6 23.7 -0.442 -0.017
22:25 1014 29.94 843 24.89 -0.9 30.5 77 -4.3 24.2 -0.498 -0.02
22:26 1014 29.94 843 24.89 -1.1 30 78 -4.4 24.1 -0.708 -0.028
22:27 1014 29.94 843 24.89 -1.5 29.4 80 -4.5 23.9 -1.025 -0.04
22:28 1014 29.94 843 24.89 -1.8 28.9 82 -4.5 24 -1.314 -0.052
22:29 1014 29.94 843 24.89 -2 28.5 84 -4.4 24.1 -1.569 -0.062
22:30 1014 29.94 843 24.89 -2.2 28.1 85 -4.3 24.3 -1.727 -0.068
22:31 1014 29.94 843 24.89 -2.4 27.8 86 -4.4 24.2 -1.903 -0.075
22:32 1014 29.94 843 24.89 -2.5 27.6 87 -4.3 24.3 -2.067 -0.081
22:33 1014 29.94 843 24.89 -2.6 27.3 88 -4.3 24.2 -2.169 -0.085
22:34 1014 29.94 843 24.89 -2.7 27.2 89 -4.2 24.4 -2.214 -0.087
22:35 1014 29.94 843 24.89 -2.7 27.2 90 -4.1 24.5 -2.243 -0.088
22:36 1013 29.91 843 24.89 -2.7 27.1 90 -4.1 24.7 -2.288 -0.09
22:37 1014 29.94 843 24.89 -2.7 27.1 92 -3.9 25 -2.22 -0.087
22:38 1013 29.91 843 24.89 -2.6 27.3 92 -3.7 25.3 -2.152 -0.085
22:39 1013 29.91 843 24.89 -2.6 27.3 93 -3.6 25.5 -2.078 -0.082
22:40 1013 29.91 843 24.89 -2.6 27.4 93 -3.6 25.6 -2.084 -0.082
22:41 1014 29.94 843 24.89 -2.5 27.4 93 -3.5 25.6 -2.112 -0.083
22:42 1014 29.94 843 24.89 -2.5 27.4 94 -3.4 25.8 -2.067 -0.081
22:43 1014 29.94 843 24.89 -2.5 27.5 93 -3.4 25.9 -2.01 -0.079
22:44 1014 29.94 843 24.89 -2.5 27.5 93 -3.5 25.7 -2.061 -0.081
22:45 1013 29.91 843 24.89 -2.4 27.7 93 -3.3 26 -1.908 -0.075
22:46 1014 29.94 843 24.89 -2.3 27.9 92 -3.4 25.9 -1.812 -0.071
22:47 1013 29.91 843 24.89 -2.3 27.9 91 -3.6 25.5 -1.897 -0.075
22:48 1014 29.94 843 24.89 -2.4 27.8 92 -3.5 25.6 -1.948 -0.077
22:49 1014 29.94 843 24.89 -2.4 27.7 91 -3.6 25.5 -2.004 -0.079
22:50 1014 29.94 843 24.89 -2.5 27.5 92 -3.7 25.4 -2.095 -0.082
22:51 1014 29.94 843 24.89 -2.5 27.4 92 -3.7 25.4 -2.152 -0.085
22:52 1014 29.94 843 24.89 -2.6 27.3 92 -3.8 25.1 -2.259 -0.089
22:53 1014 29.94 843 24.89 -2.8 26.9 91 -4.1 24.5 -2.446 -0.096
22:54 1014 29.94 843 24.89 -2.9 26.8 92 -4 24.7 -2.531 -0.1
22:55 1014 29.94 843 24.89 -3 26.7 93 -4 24.8 -2.571 -0.101
22:56 1014 29.94 843 24.89 -3.1 26.5 92 -4.2 24.4 -2.69 -0.106
22:57 1014 29.94 843 24.89 -3.1 26.4 93 -4.1 24.6 -2.724 -0.107
22:58 1014 29.94 843 24.89 -3 26.6 94 -3.8 25.2 -2.707 -0.107
22:59 1014 29.94 843 24.89 -3 26.6 94 -3.8 25.2 -2.645 -0.104
23:00 1014 29.94 843 24.89 -2.8 26.9 95 -3.6 25.6 -2.531 -0.1
23:01 1014 29.94 843 24.89 -2.7 27.2 94 -3.5 25.7 -2.435 -0.096
23:02 1014 29.94 843 24.89 -2.6 27.4 94 -3.4 25.9 -2.299 -0.091
23:03 1014 29.94 843 24.89 -2.3 27.8 94 -3.2 26.3 -2.067 -0.081
23:04 1014 29.94 843 24.89 -2.2 28 90 -3.7 25.4 -2.05 -0.081
23:05 1014 29.94 843 24.89 -2.3 27.9 90 -3.6 25.5 -2.072 -0.082
23:06 1014 29.94 843 24.89 -2.2 28.1 92 -3.4 25.9 -1.953 -0.077
23:07 1014 29.94 843 24.89 -2.1 28.3 91 -3.4 25.9 -1.873 -0.074
23:08 1014 29.94 843 24.89 -2 28.4 90 -3.4 25.9 -1.901 -0.075
23:09 1014 29.94 843 24.89 -2 28.4 90 -3.4 25.9 -1.776 -0.07
23:10 1014 29.94 843 24.89 -2 28.4 88 -3.7 25.4 -1.741 -0.069
23:11 1014 29.94 843 24.89 -2.1 28.3 89 -3.7 25.4 -1.736 -0.068
23:12 1014 29.94 843 24.89 -2 28.3 88 -3.7 25.3 -1.746 -0.069
23:13 1014 29.94 843 24.89 -2 28.4 86 -4 24.8 -1.707 -0.067
23:14 1014 29.94 843 24.89 -2 28.5 87 -3.9 24.9 -1.673 -0.066
23:15 1014 29.94 843 24.89 -1.9 28.7 85 -4 24.8 -1.627 -0.064
23:16 1014 29.94 843 24.89 -1.8 28.7 84 -4.2 24.5 -1.576 -0.062
23:17 1014 29.94 843 24.89 -1.8 28.7 84 -4.2 24.4 -1.496 -0.059
23:18 1014 29.94 843 24.89 -1.9 28.7 84 -4.2 24.5 -1.485 -0.058
23:19 1014 29.94 843 24.89 -1.9 28.6 84 -4.3 24.3 -1.501 -0.059
23:20 1014 29.94 843 24.89 -2 28.4 85 -4.2 24.5 -1.581 -0.062
23:21 1014 29.94 843 24.89 -2 28.4 85 -4.2 24.5 -1.636 -0.064
23:22 1014 29.94 843 24.89 -2.1 28.2 85 -4.3 24.3 -1.726 -0.068
23:23 1014 29.94 843 24.89 -2.2 28 85 -4.5 23.9 -1.817 -0.072
23:24 1014 29.94 843 24.89 -2.2 28 82 -4.9 23.1 -1.855 -0.073
23:25 1014 29.94 843 24.89 -2.2 28.1 79 -5.4 22.2 -1.833 -0.072
23:26 1014 29.94 843 24.89 -2.2 28 76 -5.9 21.3 -1.849 -0.073
23:27 1014 29.94 843 24.89 -2.2 28 75 -6.1 21 -1.905 -0.075
23:28 1014 29.94 843 24.89 -2.3 27.9 75 -6.1 21 -1.894 -0.075
23:29 1014 29.94 843 24.89 -2.3 27.9 74 -6.2 20.8 -1.894 -0.075
23:30 1014 29.94 843 24.89 -2.3 27.9 75 -6.1 21 -1.893 -0.075
23:31 1014 29.94 843 24.89 -2.3 27.9 73 -6.4 20.4 -1.882 -0.074
23:32 1014 29.94 843 24.89 -2.2 28 72 -6.5 20.2 -1.847 -0.073
23:33 1014 29.94 843 24.89 -2.2 28 73 -6.5 20.4 -1.847 -0.073
23:34 1014 29.94 843 24.89 -2.3 27.9 73 -6.4 20.5 -1.881 -0.074
23:35 1014 29.94 843 24.89 -2.4 27.7 74 -6.4 20.4 -1.915 -0.075
23:36 1014 29.94 843 24.89 -2.5 27.6 74 -6.5 20.3 -1.999 -0.079
23:37 1014 29.94 843 24.89 -2.6 27.3 74 -6.6 20.1 -2.164 -0.085
23:38 1014 29.94 843 24.89 -2.8 27 73 -6.9 19.6 -2.339 -0.092
23:39 1014 29.94 843 24.89 -2.9 26.7 73 -7.1 19.2 -2.52 -0.099
23:40 1014 29.94 843 24.89 -3.2 26.3 74 -7.1 19.2 -2.792 -0.11
23:41 1014 29.94 843 24.89 -3.4 25.9 77 -6.8 19.7 -3.007 -0.118
23:42 1014 29.94 843 24.89 -3.6 25.5 79 -6.7 19.9 -3.194 -0.126
23:43 1014 29.94 843 24.89 -3.8 25.2 80 -6.7 19.9 -3.353 -0.132
23:44 1014 29.94 843 24.89 -3.9 24.9 83 -6.5 20.3 -3.466 -0.136
23:45 1014 29.94 843 24.89 -3.9 24.9 83 -6.4 20.4 -3.494 -0.138
23:46 1014 29.94 843 24.89 -4 24.9 84 -6.3 20.7 -3.438 -0.135
23:47 1014 29.94 843 24.89 -3.8 25.1 83 -6.3 20.6 -3.25 -0.128
23:48 1014 29.94 843 24.89 -3.7 25.4 81 -6.4 20.4 -3.12 -0.123
23:49 1014 29.94 843 24.89 -3.6 25.5 81 -6.5 20.4 -3.114 -0.123
23:50 1014 29.94 843 24.89 -3.6 25.6 82 -6.2 20.8 -3.052 -0.12
23:51 1014 29.94 843 24.89 -3.4 25.8 81 -6.2 20.8 -2.848 -0.112
23:52 1014 29.94 843 24.89 -3.2 26.3 81 -6 21.2 -2.61 -0.103
23:53 1014 29.94 843 24.89 -3 26.7 80 -5.9 21.4 -2.434 -0.096
23:54 1014 29.94 843 24.89 -2.9 26.8 80 -5.9 21.3 -2.434 -0.096
23:55 1014 29.94 843 24.89 -3 26.7 79 -6.1 21.1 -2.451 -0.096
23:56 1014 29.94 843 24.89 -3 26.7 78 -6.2 20.8 -2.479 -0.098
23:57 1014 29.94 843 24.89 -3 26.5 78 -6.3 20.7 -2.564 -0.101
23:58 1014 29.94 843 24.89 -3.1 26.4 80 -6 21.2 -2.604 -0.103
23:59 1014 29.94 843 24.89 -3.1 26.4 80 -6.1 21 -2.649 -0.104
24:00 1014 29.94 843 24.89 -3.1 26.4 80 -6.1 21 -2.683 -0.106